PWSweather.com
Personal Weather Stations
Station Observations
KMNHANSK2
Thompson Farms, Hanska, MN 56041

Thompson FarmsHanska, MN 56041

Lat: 44.170119, Lon: -94.381619

Elevation: 1004

Station Type: Wireless Davis Instruments Vantage Pro2 Plus

http://www.madeliasliveweather.com/thompsonfarms/

Latest ConditionsUpdated 9:44:01 AM CST Saturday, Feb 25, 2017
Currently Today's Max Today's Min Today's Average
Temperature 22.5°F-5.3°C 22.5°F-5.3°C 16.9°F-8.4°C 18.4°F-7.6°C
Dew Point 16.1°F-8.8°C 16.5°F-8.6°C 11.0°F-11.7°C 13.0°F-10.6°C
Winds 7.0 mph WNW11.3 kmh WNW 30.0 mph NW48.3 kmh NW - 14.9 mph 24.0 kmh
Wind Gusts 14.0 mph22.5 kmh 30.0 mph48.3 kmh - -
Humidity 76% 82% 76% 79%
Pressure 30.06 in1017.9 mb 30.08 in1018.6 mb 29.99 in1015.6 mb -
Hour Temp Dew Point Humidity Winds Wind Gusts Pressure Precip Precip Rate Daily Precip Total
09:44 AM 22.5°F-5.3°C 16.1°F-8.8°C 76% 7.0 mph WNW11.3 kmh WNW 14.0 mph22.5 kmh 30.06 in1017.9 mb 0.00 in0.0 mm 0.00 in0.0 mm 0.00 in0.0 mm
09:43 AM 22.5°F-5.3°C 16.1°F-8.8°C 76% 7.0 mph WNW11.3 kmh WNW 14.0 mph22.5 kmh 30.06 in1017.9 mb 0.00 in0.0 mm 0.00 in0.0 mm 0.00 in0.0 mm
09:42 AM 22.5°F-5.3°C 16.1°F-8.8°C 76% 9.0 mph W14.5 kmh W 14.0 mph22.5 kmh 30.06 in1017.9 mb 0.00 in0.0 mm 0.00 in0.0 mm 0.00 in0.0 mm
09:41 AM 22.5°F-5.3°C 16.4°F-8.7°C 77% 8.0 mph WNW12.9 kmh WNW 14.0 mph22.5 kmh 30.06 in1017.9 mb 0.00 in0.0 mm 0.00 in0.0 mm 0.00 in0.0 mm
09:40 AM 22.4°F-5.3°C 16.0°F-8.9°C 76% 10.0 mph NW16.1 kmh NW 12.0 mph19.3 kmh 30.06 in1017.9 mb 0.00 in0.0 mm 0.00 in0.0 mm 0.00 in0.0 mm
09:39 AM 22.4°F-5.3°C 16.0°F-8.9°C 76% 7.0 mph WNW11.3 kmh WNW 12.0 mph19.3 kmh 30.06 in1017.9 mb 0.00 in0.0 mm 0.00 in0.0 mm 0.00 in0.0 mm
09:38 AM 22.4°F-5.3°C 16.0°F-8.9°C 76% 1.0 mph WNW1.6 kmh WNW 12.0 mph19.3 kmh 30.06 in1017.9 mb 0.00 in0.0 mm 0.00 in0.0 mm 0.00 in0.0 mm
09:37 AM 22.4°F-5.3°C 16.3°F-8.7°C 77% 7.0 mph W11.3 kmh W 12.0 mph19.3 kmh 30.06 in1017.9 mb 0.00 in0.0 mm 0.00 in0.0 mm 0.00 in0.0 mm
09:36 AM 22.4°F-5.3°C 16.3°F-8.7°C 77% 4.0 mph WNW6.4 kmh WNW 12.0 mph19.3 kmh 30.06 in1017.9 mb 0.00 in0.0 mm 0.00 in0.0 mm 0.00 in0.0 mm
09:34 AM 22.3°F-5.4°C 16.2°F-8.8°C 77% 5.0 mph NW8.0 kmh NW 11.0 mph17.7 kmh 30.06 in1017.9 mb 0.00 in0.0 mm 0.00 in0.0 mm 0.00 in0.0 mm
09:33 AM 22.3°F-5.4°C 16.5°F-8.6°C 78% 9.0 mph WNW14.5 kmh WNW 11.0 mph17.7 kmh 30.06 in1017.9 mb 0.00 in0.0 mm 0.00 in0.0 mm 0.00 in0.0 mm
09:32 AM 22.2°F-5.4°C 16.4°F-8.7°C 78% 6.0 mph WNW9.7 kmh WNW 11.0 mph17.7 kmh 30.06 in1017.9 mb 0.00 in0.0 mm 0.00 in0.0 mm 0.00 in0.0 mm
09:31 AM 22.1°F-5.5°C 16.0°F-8.9°C 77% 6.0 mph NW9.7 kmh NW 11.0 mph17.7 kmh 30.06 in1017.9 mb 0.00 in0.0 mm 0.00 in0.0 mm 0.00 in0.0 mm
09:30 AM 22.0°F-5.6°C 15.9°F-8.9°C 77% 8.0 mph NW12.9 kmh NW 18.0 mph29.0 kmh 30.06 in1017.9 mb 0.00 in0.0 mm 0.00 in0.0 mm 0.00 in0.0 mm
09:29 AM 21.9°F-5.6°C 15.5°F-9.2°C 76% 8.0 mph WNW12.9 kmh WNW 18.0 mph29.0 kmh 30.06 in1017.9 mb 0.00 in0.0 mm 0.00 in0.0 mm 0.00 in0.0 mm
09:28 AM 21.8°F-5.7°C 15.7°F-9.1°C 77% 9.0 mph NW14.5 kmh NW 18.0 mph29.0 kmh 30.06 in1017.9 mb 0.00 in0.0 mm 0.00 in0.0 mm 0.00 in0.0 mm
09:27 AM 21.9°F-5.6°C 15.8°F-9.0°C 77% 9.0 mph NW14.5 kmh NW 18.0 mph29.0 kmh 30.07 in1018.3 mb 0.00 in0.0 mm 0.00 in0.0 mm 0.00 in0.0 mm
09:26 AM 21.9°F-5.6°C 15.8°F-9.0°C 77% 11.0 mph WNW17.7 kmh WNW 18.0 mph29.0 kmh 30.07 in1018.3 mb 0.00 in0.0 mm 0.00 in0.0 mm 0.00 in0.0 mm
09:25 AM 21.9°F-5.6°C 15.8°F-9.0°C 77% 1.0 mph W1.6 kmh W 18.0 mph29.0 kmh 30.07 in1018.3 mb 0.00 in0.0 mm 0.00 in0.0 mm 0.00 in0.0 mm
09:24 AM 21.9°F-5.6°C 16.1°F-8.8°C 78% 6.0 mph NW9.7 kmh NW 18.0 mph29.0 kmh 30.07 in1018.3 mb 0.00 in0.0 mm 0.00 in0.0 mm 0.00 in0.0 mm
09:23 AM 21.8°F-5.7°C 15.7°F-9.1°C 77% 7.0 mph NW11.3 kmh NW 18.0 mph29.0 kmh 30.07 in1018.3 mb 0.00 in0.0 mm 0.00 in0.0 mm 0.00 in0.0 mm
09:22 AM 21.8°F-5.7°C 15.7°F-9.1°C 77% 7.0 mph WNW11.3 kmh WNW 18.0 mph29.0 kmh 30.06 in1017.9 mb 0.00 in0.0 mm 0.00 in0.0 mm 0.00 in0.0 mm
09:21 AM 21.7°F-5.7°C 15.6°F-9.1°C 77% 11.0 mph NW17.7 kmh NW 18.0 mph29.0 kmh 30.06 in1017.9 mb 0.00 in0.0 mm 0.00 in0.0 mm 0.00 in0.0 mm
09:20 AM 21.7°F-5.7°C 15.6°F-9.1°C 77% 8.0 mph NW12.9 kmh NW 18.0 mph29.0 kmh 30.07 in1018.3 mb 0.00 in0.0 mm 0.00 in0.0 mm 0.00 in0.0 mm
09:19 AM 21.7°F-5.7°C 15.6°F-9.1°C 77% 9.0 mph WNW14.5 kmh WNW 18.0 mph29.0 kmh 30.06 in1017.9 mb 0.00 in0.0 mm 0.00 in0.0 mm 0.00 in0.0 mm
09:18 AM 21.7°F-5.7°C 15.9°F-8.9°C 78% 8.0 mph WNW12.9 kmh WNW 18.0 mph29.0 kmh 30.07 in1018.3 mb 0.00 in0.0 mm 0.00 in0.0 mm 0.00 in0.0 mm
09:17 AM 21.6°F-5.8°C 15.5°F-9.2°C 77% 3.0 mph WNW4.8 kmh WNW 18.0 mph29.0 kmh 30.07 in1018.3 mb 0.00 in0.0 mm 0.00 in0.0 mm 0.00 in0.0 mm
09:16 AM 21.6°F-5.8°C 15.5°F-9.2°C 77% 3.0 mph WNW4.8 kmh WNW 18.0 mph29.0 kmh 30.07 in1018.3 mb 0.00 in0.0 mm 0.00 in0.0 mm 0.00 in0.0 mm
09:15 AM 21.5°F-5.8°C 15.4°F-9.2°C 77% 11.0 mph NW17.7 kmh NW 18.0 mph29.0 kmh 30.07 in1018.3 mb 0.00 in0.0 mm 0.00 in0.0 mm 0.00 in0.0 mm
09:14 AM 21.5°F-5.8°C 15.4°F-9.2°C 77% 12.0 mph NW19.3 kmh NW 18.0 mph29.0 kmh 30.07 in1018.3 mb 0.00 in0.0 mm 0.00 in0.0 mm 0.00 in0.0 mm
09:13 AM 21.5°F-5.8°C 15.4°F-9.2°C 77% 13.0 mph WNW20.9 kmh WNW 18.0 mph29.0 kmh 30.07 in1018.3 mb 0.00 in0.0 mm 0.00 in0.0 mm 0.00 in0.0 mm
09:12 AM 21.4°F-5.9°C 15.3°F-9.3°C 77% 9.0 mph WNW14.5 kmh WNW 18.0 mph29.0 kmh 30.07 in1018.3 mb 0.00 in0.0 mm 0.00 in0.0 mm 0.00 in0.0 mm
09:11 AM 21.3°F-5.9°C 15.2°F-9.3°C 77% 5.0 mph WNW8.0 kmh WNW 18.0 mph29.0 kmh 30.07 in1018.3 mb 0.00 in0.0 mm 0.00 in0.0 mm 0.00 in0.0 mm
09:10 AM 21.3°F-5.9°C 15.5°F-9.2°C 78% 13.0 mph WNW20.9 kmh WNW 18.0 mph29.0 kmh 30.07 in1018.3 mb 0.00 in0.0 mm 0.00 in0.0 mm 0.00 in0.0 mm
09:09 AM 21.3°F-5.9°C 15.5°F-9.2°C 78% 10.0 mph WNW16.1 kmh WNW 18.0 mph29.0 kmh 30.07 in1018.3 mb 0.00 in0.0 mm 0.00 in0.0 mm 0.00 in0.0 mm
09:08 AM 21.2°F-6.0°C 15.4°F-9.2°C 78% 12.0 mph WNW19.3 kmh WNW 18.0 mph29.0 kmh 30.07 in1018.3 mb 0.00 in0.0 mm 0.00 in0.0 mm 0.00 in0.0 mm
09:07 AM 21.1°F-6.1°C 15.0°F-9.4°C 77% 8.0 mph NW12.9 kmh NW 18.0 mph29.0 kmh 30.07 in1018.3 mb 0.00 in0.0 mm 0.00 in0.0 mm 0.00 in0.0 mm
09:06 AM 21.1°F-6.1°C 15.0°F-9.4°C 77% 10.0 mph NW16.1 kmh NW 18.0 mph29.0 kmh 30.07 in1018.3 mb 0.00 in0.0 mm 0.00 in0.0 mm 0.00 in0.0 mm
09:05 AM 21.1°F-6.1°C 15.3°F-9.3°C 78% 14.0 mph NW22.5 kmh NW 18.0 mph29.0 kmh 30.07 in1018.3 mb 0.00 in0.0 mm 0.00 in0.0 mm 0.00 in0.0 mm
09:04 AM 21.1°F-6.1°C 15.3°F-9.3°C 78% 11.0 mph WNW17.7 kmh WNW 16.0 mph25.7 kmh 30.07 in1018.3 mb 0.00 in0.0 mm 0.00 in0.0 mm 0.00 in0.0 mm
09:03 AM 21.0°F-6.1°C 14.9°F-9.5°C 77% 10.0 mph WNW16.1 kmh WNW 16.0 mph25.7 kmh 30.07 in1018.3 mb 0.00 in0.0 mm 0.00 in0.0 mm 0.00 in0.0 mm
09:02 AM 21.0°F-6.1°C 15.2°F-9.3°C 78% 9.0 mph NW14.5 kmh NW 13.0 mph20.9 kmh 30.07 in1018.3 mb 0.00 in0.0 mm 0.00 in0.0 mm 0.00 in0.0 mm
09:01 AM 20.9°F-6.2°C 14.8°F-9.6°C 77% 5.0 mph NW8.0 kmh NW 12.0 mph19.3 kmh 30.07 in1018.3 mb 0.00 in0.0 mm 0.00 in0.0 mm 0.00 in0.0 mm
09:00 AM 20.9°F-6.2°C 14.8°F-9.6°C 77% 12.0 mph NW19.3 kmh NW 20.0 mph32.2 kmh 30.07 in1018.3 mb 0.00 in0.0 mm 0.00 in0.0 mm 0.00 in0.0 mm
08:59 AM 20.9°F-6.2°C 14.8°F-9.6°C 77% 9.0 mph NW14.5 kmh NW 20.0 mph32.2 kmh 30.07 in1018.3 mb 0.00 in0.0 mm 0.00 in0.0 mm 0.00 in0.0 mm
08:58 AM 20.9°F-6.2°C 14.8°F-9.6°C 77% 10.0 mph WNW16.1 kmh WNW 20.0 mph32.2 kmh 30.07 in1018.3 mb 0.00 in0.0 mm 0.00 in0.0 mm 0.00 in0.0 mm
08:57 AM 20.9°F-6.2°C 14.8°F-9.6°C 77% 16.0 mph NW25.7 kmh NW 20.0 mph32.2 kmh 30.07 in1018.3 mb 0.00 in0.0 mm 0.00 in0.0 mm 0.00 in0.0 mm
08:56 AM 20.8°F-6.2°C 15.0°F-9.4°C 78% 14.0 mph NW22.5 kmh NW 20.0 mph32.2 kmh 30.07 in1018.3 mb 0.00 in0.0 mm 0.00 in0.0 mm 0.00 in0.0 mm
08:55 AM 20.8°F-6.2°C 15.0°F-9.4°C 78% 12.0 mph WNW19.3 kmh WNW 20.0 mph32.2 kmh 30.07 in1018.3 mb 0.00 in0.0 mm 0.00 in0.0 mm 0.00 in0.0 mm
08:54 AM 20.8°F-6.2°C 15.0°F-9.4°C 78% 9.0 mph WNW14.5 kmh WNW 20.0 mph32.2 kmh 30.07 in1018.3 mb 0.00 in0.0 mm 0.00 in0.0 mm 0.00 in0.0 mm
08:53 AM 20.8°F-6.2°C 15.0°F-9.4°C 78% 8.0 mph NW12.9 kmh NW 20.0 mph32.2 kmh 30.07 in1018.3 mb 0.00 in0.0 mm 0.00 in0.0 mm 0.00 in0.0 mm
08:52 AM 20.7°F-6.3°C 14.9°F-9.5°C 78% 9.0 mph NW14.5 kmh NW 20.0 mph32.2 kmh 30.07 in1018.3 mb 0.00 in0.0 mm 0.00 in0.0 mm 0.00 in0.0 mm
08:51 AM 20.7°F-6.3°C 15.2°F-9.3°C 79% 12.0 mph NW19.3 kmh NW 20.0 mph32.2 kmh 30.07 in1018.3 mb 0.00 in0.0 mm 0.00 in0.0 mm 0.00 in0.0 mm
08:50 AM 20.6°F-6.3°C 15.1°F-9.4°C 79% 5.0 mph WNW8.0 kmh WNW 20.0 mph32.2 kmh 30.07 in1018.3 mb 0.00 in0.0 mm 0.00 in0.0 mm 0.00 in0.0 mm
08:49 AM 20.5°F-6.4°C 14.7°F-9.6°C 78% 12.0 mph NW19.3 kmh NW 20.0 mph32.2 kmh 30.07 in1018.3 mb 0.00 in0.0 mm 0.00 in0.0 mm 0.00 in0.0 mm
08:48 AM 20.4°F-6.4°C 14.7°F-9.6°C 78% 9.0 mph WNW14.5 kmh WNW 20.0 mph32.2 kmh 30.07 in1018.3 mb 0.00 in0.0 mm 0.00 in0.0 mm 0.00 in0.0 mm
08:47 AM 20.4°F-6.4°C 14.7°F-9.6°C 78% 16.0 mph NW25.7 kmh NW 20.0 mph32.2 kmh 30.07 in1018.3 mb 0.00 in0.0 mm 0.00 in0.0 mm 0.00 in0.0 mm
08:46 AM 20.3°F-6.5°C 14.6°F-9.7°C 78% 8.0 mph WNW12.9 kmh WNW 20.0 mph32.2 kmh 30.07 in1018.3 mb 0.00 in0.0 mm 0.00 in0.0 mm 0.00 in0.0 mm
08:45 AM 20.3°F-6.5°C 14.6°F-9.7°C 78% 6.0 mph WNW9.7 kmh WNW 20.0 mph32.2 kmh 30.08 in1018.6 mb 0.00 in0.0 mm 0.00 in0.0 mm 0.00 in0.0 mm
08:44 AM 20.2°F-6.6°C 14.5°F-9.7°C 78% 12.0 mph NW19.3 kmh NW 20.0 mph32.2 kmh 30.08 in1018.6 mb 0.00 in0.0 mm 0.00 in0.0 mm 0.00 in0.0 mm
08:43 AM 20.2°F-6.6°C 14.5°F-9.7°C 78% 12.0 mph NW19.3 kmh NW 20.0 mph32.2 kmh 30.08 in1018.6 mb 0.00 in0.0 mm 0.00 in0.0 mm 0.00 in0.0 mm
08:42 AM 20.2°F-6.6°C 14.5°F-9.7°C 78% 14.0 mph WNW22.5 kmh WNW 20.0 mph32.2 kmh 30.08 in1018.6 mb 0.00 in0.0 mm 0.00 in0.0 mm 0.00 in0.0 mm
08:41 AM 20.1°F-6.6°C 14.4°F-9.8°C 78% 14.0 mph NW22.5 kmh NW 16.0 mph25.7 kmh 30.08 in1018.6 mb 0.00 in0.0 mm 0.00 in0.0 mm 0.00 in0.0 mm
08:40 AM 20.1°F-6.6°C 14.4°F-9.8°C 78% 11.0 mph NW17.7 kmh NW 16.0 mph25.7 kmh 30.08 in1018.6 mb 0.00 in0.0 mm 0.00 in0.0 mm 0.00 in0.0 mm
08:39 AM 20.0°F-6.7°C 14.6°F-9.7°C 79% 12.0 mph NW19.3 kmh NW 16.0 mph25.7 kmh 30.08 in1018.6 mb 0.00 in0.0 mm 0.00 in0.0 mm 0.00 in0.0 mm
08:38 AM 20.0°F-6.7°C 14.6°F-9.7°C 79% 10.0 mph NW16.1 kmh NW 16.0 mph25.7 kmh 30.07 in1018.3 mb 0.00 in0.0 mm 0.00 in0.0 mm 0.00 in0.0 mm
08:37 AM 20.0°F-6.7°C 14.6°F-9.7°C 79% 12.0 mph NW19.3 kmh NW 16.0 mph25.7 kmh 30.08 in1018.6 mb 0.00 in0.0 mm 0.00 in0.0 mm 0.00 in0.0 mm
08:36 AM 20.0°F-6.7°C 14.8°F-9.6°C 80% 15.0 mph NW24.1 kmh NW 16.0 mph25.7 kmh 30.07 in1018.3 mb 0.00 in0.0 mm 0.00 in0.0 mm 0.00 in0.0 mm
08:35 AM 19.9°F-6.7°C 14.7°F-9.6°C 80% 6.0 mph NW9.7 kmh NW 13.0 mph20.9 kmh 30.08 in1018.6 mb 0.00 in0.0 mm 0.00 in0.0 mm 0.00 in0.0 mm
08:34 AM 19.8°F-6.8°C 14.6°F-9.7°C 80% 6.0 mph NW9.7 kmh NW 13.0 mph20.9 kmh 30.08 in1018.6 mb 0.00 in0.0 mm 0.00 in0.0 mm 0.00 in0.0 mm
08:33 AM 19.8°F-6.8°C 14.4°F-9.8°C 79% 9.0 mph NW14.5 kmh NW 13.0 mph20.9 kmh 30.08 in1018.6 mb 0.00 in0.0 mm 0.00 in0.0 mm 0.00 in0.0 mm
08:32 AM 19.7°F-6.8°C 14.3°F-9.8°C 79% 9.0 mph WNW14.5 kmh WNW 13.0 mph20.9 kmh 30.08 in1018.6 mb 0.00 in0.0 mm 0.00 in0.0 mm 0.00 in0.0 mm
08:31 AM 19.6°F-6.9°C 14.2°F-9.9°C 79% 4.0 mph NW6.4 kmh NW 13.0 mph20.9 kmh 30.07 in1018.3 mb 0.00 in0.0 mm 0.00 in0.0 mm 0.00 in0.0 mm
08:30 AM 19.6°F-6.9°C 14.2°F-9.9°C 79% 10.0 mph NW16.1 kmh NW 19.0 mph30.6 kmh 30.08 in1018.6 mb 0.00 in0.0 mm 0.00 in0.0 mm 0.00 in0.0 mm
08:29 AM 19.5°F-6.9°C 14.1°F-9.9°C 79% 6.0 mph WNW9.7 kmh WNW 19.0 mph30.6 kmh 30.08 in1018.6 mb 0.00 in0.0 mm 0.00 in0.0 mm 0.00 in0.0 mm
08:28 AM 19.5°F-6.9°C 14.1°F-9.9°C 79% 10.0 mph NW16.1 kmh NW 19.0 mph30.6 kmh 30.08 in1018.6 mb 0.00 in0.0 mm 0.00 in0.0 mm 0.00 in0.0 mm
08:27 AM 19.4°F-7.0°C 14.0°F-10.0°C 79% 10.0 mph NW16.1 kmh NW 19.0 mph30.6 kmh 30.07 in1018.3 mb 0.00 in0.0 mm 0.00 in0.0 mm 0.00 in0.0 mm
08:26 AM 19.4°F-7.0°C 14.0°F-10.0°C 79% 11.0 mph NW17.7 kmh NW 19.0 mph30.6 kmh 30.07 in1018.3 mb 0.00 in0.0 mm 0.00 in0.0 mm 0.00 in0.0 mm
08:25 AM 19.3°F-7.1°C 13.9°F-10.1°C 79% 7.0 mph WNW11.3 kmh WNW 19.0 mph30.6 kmh 30.07 in1018.3 mb 0.00 in0.0 mm 0.00 in0.0 mm 0.00 in0.0 mm
08:24 AM 19.3°F-7.1°C 13.9°F-10.1°C 79% 13.0 mph NW20.9 kmh NW 19.0 mph30.6 kmh 30.07 in1018.3 mb 0.00 in0.0 mm 0.00 in0.0 mm 0.00 in0.0 mm
08:23 AM 19.3°F-7.1°C 14.2°F-9.9°C 80% 13.0 mph NW20.9 kmh NW 19.0 mph30.6 kmh 30.07 in1018.3 mb 0.00 in0.0 mm 0.00 in0.0 mm 0.00 in0.0 mm
08:22 AM 19.2°F-7.1°C 14.1°F-9.9°C 80% 9.0 mph NW14.5 kmh NW 19.0 mph30.6 kmh 30.07 in1018.3 mb 0.00 in0.0 mm 0.00 in0.0 mm 0.00 in0.0 mm
08:21 AM 19.1°F-7.2°C 14.0°F-10.0°C 80% 8.0 mph NW12.9 kmh NW 19.0 mph30.6 kmh 30.07 in1018.3 mb 0.00 in0.0 mm 0.00 in0.0 mm 0.00 in0.0 mm
08:20 AM 19.1°F-7.2°C 14.0°F-10.0°C 80% 9.0 mph NW14.5 kmh NW 19.0 mph30.6 kmh 30.07 in1018.3 mb 0.00 in0.0 mm 0.00 in0.0 mm 0.00 in0.0 mm
08:19 AM 19.0°F-7.2°C 13.9°F-10.1°C 80% 11.0 mph NW17.7 kmh NW 19.0 mph30.6 kmh 30.07 in1018.3 mb 0.00 in0.0 mm 0.00 in0.0 mm 0.00 in0.0 mm
08:18 AM 19.0°F-7.2°C 13.9°F-10.1°C 80% 11.0 mph WNW17.7 kmh WNW 19.0 mph30.6 kmh 30.07 in1018.3 mb 0.00 in0.0 mm 0.00 in0.0 mm 0.00 in0.0 mm
08:17 AM 19.0°F-7.2°C 13.9°F-10.1°C 80% 12.0 mph NW19.3 kmh NW 19.0 mph30.6 kmh 30.07 in1018.3 mb 0.00 in0.0 mm 0.00 in0.0 mm 0.00 in0.0 mm
08:16 AM 18.9°F-7.3°C 13.8°F-10.1°C 80% 11.0 mph WNW17.7 kmh WNW 19.0 mph30.6 kmh 30.07 in1018.3 mb 0.00 in0.0 mm 0.00 in0.0 mm 0.00 in0.0 mm
08:15 AM 18.9°F-7.3°C 13.8°F-10.1°C 80% 10.0 mph NW16.1 kmh NW 19.0 mph30.6 kmh 30.07 in1018.3 mb 0.00 in0.0 mm 0.00 in0.0 mm 0.00 in0.0 mm
08:14 AM 18.9°F-7.3°C 13.8°F-10.1°C 80% 9.0 mph NW14.5 kmh NW 19.0 mph30.6 kmh 30.07 in1018.3 mb 0.00 in0.0 mm 0.00 in0.0 mm 0.00 in0.0 mm
08:13 AM 18.8°F-7.3°C 13.7°F-10.2°C 80% 10.0 mph WNW16.1 kmh WNW 19.0 mph30.6 kmh 30.07 in1018.3 mb 0.00 in0.0 mm 0.00 in0.0 mm 0.00 in0.0 mm
08:12 AM 18.8°F-7.3°C 13.7°F-10.2°C 80% 11.0 mph WNW17.7 kmh WNW 19.0 mph30.6 kmh 30.07 in1018.3 mb 0.00 in0.0 mm 0.00 in0.0 mm 0.00 in0.0 mm
08:11 AM 18.7°F-7.4°C 13.6°F-10.2°C 80% 14.0 mph NW22.5 kmh NW 19.0 mph30.6 kmh 30.07 in1018.3 mb 0.00 in0.0 mm 0.00 in0.0 mm 0.00 in0.0 mm
08:10 AM 18.7°F-7.4°C 13.6°F-10.2°C 80% 12.0 mph WNW19.3 kmh WNW 19.0 mph30.6 kmh 30.07 in1018.3 mb 0.00 in0.0 mm 0.00 in0.0 mm 0.00 in0.0 mm
08:09 AM 18.7°F-7.4°C 13.6°F-10.2°C 80% 16.0 mph NW25.7 kmh NW 19.0 mph30.6 kmh 30.07 in1018.3 mb 0.00 in0.0 mm 0.00 in0.0 mm 0.00 in0.0 mm
08:08 AM 18.6°F-7.4°C 13.5°F-10.3°C 80% 7.0 mph NW11.3 kmh NW 19.0 mph30.6 kmh 30.07 in1018.3 mb 0.00 in0.0 mm 0.00 in0.0 mm 0.00 in0.0 mm
08:07 AM 18.6°F-7.4°C 13.5°F-10.3°C 80% 13.0 mph WNW20.9 kmh WNW 19.0 mph30.6 kmh 30.07 in1018.3 mb 0.00 in0.0 mm 0.00 in0.0 mm 0.00 in0.0 mm
08:06 AM 18.6°F-7.4°C 13.5°F-10.3°C 80% 11.0 mph NW17.7 kmh NW 19.0 mph30.6 kmh 30.07 in1018.3 mb 0.00 in0.0 mm 0.00 in0.0 mm 0.00 in0.0 mm
08:05 AM 18.5°F-7.5°C 13.4°F-10.3°C 80% 13.0 mph NW20.9 kmh NW 19.0 mph30.6 kmh 30.07 in1018.3 mb 0.00 in0.0 mm 0.00 in0.0 mm 0.00 in0.0 mm
08:04 AM 18.5°F-7.5°C 13.4°F-10.3°C 80% 9.0 mph NW14.5 kmh NW 19.0 mph30.6 kmh 30.07 in1018.3 mb 0.00 in0.0 mm 0.00 in0.0 mm 0.00 in0.0 mm
08:03 AM 18.4°F-7.6°C 13.3°F-10.4°C 80% 10.0 mph NW16.1 kmh NW 19.0 mph30.6 kmh 30.07 in1018.3 mb 0.00 in0.0 mm 0.00 in0.0 mm 0.00 in0.0 mm
08:02 AM 18.4°F-7.6°C 13.3°F-10.4°C 80% 15.0 mph NW24.1 kmh NW 19.0 mph30.6 kmh 30.07 in1018.3 mb 0.00 in0.0 mm 0.00 in0.0 mm 0.00 in0.0 mm
08:01 AM 18.4°F-7.6°C 13.3°F-10.4°C 80% 14.0 mph NW22.5 kmh NW 19.0 mph30.6 kmh 30.07 in1018.3 mb 0.00 in0.0 mm 0.00 in0.0 mm 0.00 in0.0 mm
08:00 AM 18.3°F-7.6°C 13.2°F-10.4°C 80% 11.0 mph NW17.7 kmh NW 20.0 mph32.2 kmh 30.07 in1018.3 mb 0.00 in0.0 mm 0.00 in0.0 mm 0.00 in0.0 mm
07:59 AM 18.3°F-7.6°C 13.2°F-10.4°C 80% 6.0 mph NW9.7 kmh NW 20.0 mph32.2 kmh 30.07 in1018.3 mb 0.00 in0.0 mm 0.00 in0.0 mm 0.00 in0.0 mm
07:58 AM 18.2°F-7.7°C 13.1°F-10.5°C 80% 10.0 mph WNW16.1 kmh WNW 20.0 mph32.2 kmh 30.07 in1018.3 mb 0.00 in0.0 mm 0.00 in0.0 mm 0.00 in0.0 mm
07:57 AM 18.2°F-7.7°C 13.1°F-10.5°C 80% 12.0 mph NW19.3 kmh NW 20.0 mph32.2 kmh 30.07 in1018.3 mb 0.00 in0.0 mm 0.00 in0.0 mm 0.00 in0.0 mm
07:56 AM 18.1°F-7.7°C 13.0°F-10.6°C 80% 12.0 mph NW19.3 kmh NW 20.0 mph32.2 kmh 30.07 in1018.3 mb 0.00 in0.0 mm 0.00 in0.0 mm 0.00 in0.0 mm
07:55 AM 18.1°F-7.7°C 13.0°F-10.6°C 80% 9.0 mph NW14.5 kmh NW 20.0 mph32.2 kmh 30.07 in1018.3 mb 0.00 in0.0 mm 0.00 in0.0 mm 0.00 in0.0 mm
07:54 AM 18.0°F-7.8°C 12.9°F-10.6°C 80% 10.0 mph NW16.1 kmh NW 20.0 mph32.2 kmh 30.07 in1018.3 mb 0.00 in0.0 mm 0.00 in0.0 mm 0.00 in0.0 mm
07:53 AM 18.0°F-7.8°C 12.9°F-10.6°C 80% 15.0 mph WNW24.1 kmh WNW 19.0 mph30.6 kmh 30.06 in1017.9 mb 0.00 in0.0 mm 0.00 in0.0 mm 0.00 in0.0 mm
07:52 AM 18.0°F-7.8°C 12.9°F-10.6°C 80% 11.0 mph WNW17.7 kmh WNW 19.0 mph30.6 kmh 30.06 in1017.9 mb 0.00 in0.0 mm 0.00 in0.0 mm 0.00 in0.0 mm
07:51 AM 17.9°F-7.8°C 12.8°F-10.7°C 80% 16.0 mph NW25.7 kmh NW 19.0 mph30.6 kmh 30.07 in1018.3 mb 0.00 in0.0 mm 0.00 in0.0 mm 0.00 in0.0 mm
07:50 AM 17.9°F-7.8°C 12.8°F-10.7°C 80% 12.0 mph NW19.3 kmh NW 17.0 mph27.4 kmh 30.07 in1018.3 mb 0.00 in0.0 mm 0.00 in0.0 mm 0.00 in0.0 mm
07:49 AM 17.9°F-7.8°C 12.8°F-10.7°C 80% 10.0 mph NW16.1 kmh NW 17.0 mph27.4 kmh 30.06 in1017.9 mb 0.00 in0.0 mm 0.00 in0.0 mm 0.00 in0.0 mm
07:48 AM 17.8°F-7.9°C 12.7°F-10.7°C 80% 11.0 mph WNW17.7 kmh WNW 17.0 mph27.4 kmh 30.07 in1018.3 mb 0.00 in0.0 mm 0.00 in0.0 mm 0.00 in0.0 mm
07:47 AM 17.8°F-7.9°C 12.7°F-10.7°C 80% 13.0 mph NW20.9 kmh NW 17.0 mph27.4 kmh 30.07 in1018.3 mb 0.00 in0.0 mm 0.00 in0.0 mm 0.00 in0.0 mm
07:46 AM 17.7°F-7.9°C 12.6°F-10.8°C 80% 14.0 mph NW22.5 kmh NW 17.0 mph27.4 kmh 30.06 in1017.9 mb 0.00 in0.0 mm 0.00 in0.0 mm 0.00 in0.0 mm
07:45 AM 17.7°F-7.9°C 12.6°F-10.8°C 80% 11.0 mph WNW17.7 kmh WNW 17.0 mph27.4 kmh 30.06 in1017.9 mb 0.00 in0.0 mm 0.00 in0.0 mm 0.00 in0.0 mm
07:44 AM 17.6°F-8.0°C 12.5°F-10.8°C 80% 7.0 mph NW11.3 kmh NW 17.0 mph27.4 kmh 30.06 in1017.9 mb 0.00 in0.0 mm 0.00 in0.0 mm 0.00 in0.0 mm
07:43 AM 17.6°F-8.0°C 12.5°F-10.8°C 80% 6.0 mph WNW9.7 kmh WNW 17.0 mph27.4 kmh 30.06 in1017.9 mb 0.00 in0.0 mm 0.00 in0.0 mm 0.00 in0.0 mm
07:42 AM 17.6°F-8.0°C 12.5°F-10.8°C 80% 9.0 mph WNW14.5 kmh WNW 17.0 mph27.4 kmh 30.06 in1017.9 mb 0.00 in0.0 mm 0.00 in0.0 mm 0.00 in0.0 mm
07:41 AM 17.6°F-8.0°C 12.5°F-10.8°C 80% 11.0 mph WNW17.7 kmh WNW 17.0 mph27.4 kmh 30.07 in1018.3 mb 0.00 in0.0 mm 0.00 in0.0 mm 0.00 in0.0 mm
07:40 AM 17.5°F-8.1°C 12.4°F-10.9°C 80% 14.0 mph NW22.5 kmh NW 17.0 mph27.4 kmh 30.06 in1017.9 mb 0.00 in0.0 mm 0.00 in0.0 mm 0.00 in0.0 mm
07:39 AM 17.5°F-8.1°C 12.4°F-10.9°C 80% 10.0 mph WNW16.1 kmh WNW 17.0 mph27.4 kmh 30.07 in1018.3 mb 0.00 in0.0 mm 0.00 in0.0 mm 0.00 in0.0 mm
07:38 AM 17.5°F-8.1°C 12.4°F-10.9°C 80% 14.0 mph WNW22.5 kmh WNW 17.0 mph27.4 kmh 30.06 in1017.9 mb 0.00 in0.0 mm 0.00 in0.0 mm 0.00 in0.0 mm
07:37 AM 17.4°F-8.1°C 12.3°F-10.9°C 80% 10.0 mph WNW16.1 kmh WNW 14.0 mph22.5 kmh 30.06 in1017.9 mb 0.00 in0.0 mm 0.00 in0.0 mm 0.00 in0.0 mm
07:36 AM 17.4°F-8.1°C 12.3°F-10.9°C 80% 6.0 mph WNW9.7 kmh WNW 14.0 mph22.5 kmh 30.06 in1017.9 mb 0.00 in0.0 mm 0.00 in0.0 mm 0.00 in0.0 mm
07:35 AM 17.4°F-8.1°C 12.3°F-10.9°C 80% 11.0 mph NW17.7 kmh NW 14.0 mph22.5 kmh 30.06 in1017.9 mb 0.00 in0.0 mm 0.00 in0.0 mm 0.00 in0.0 mm
07:34 AM 17.4°F-8.1°C 12.0°F-11.1°C 79% 11.0 mph NW17.7 kmh NW 14.0 mph22.5 kmh 30.06 in1017.9 mb 0.00 in0.0 mm 0.00 in0.0 mm 0.00 in0.0 mm
07:33 AM 17.3°F-8.2°C 11.9°F-11.2°C 79% 9.0 mph NW14.5 kmh NW 14.0 mph22.5 kmh 30.06 in1017.9 mb 0.00 in0.0 mm 0.00 in0.0 mm 0.00 in0.0 mm
07:32 AM 17.3°F-8.2°C 11.9°F-11.2°C 79% 12.0 mph WNW19.3 kmh WNW 13.0 mph20.9 kmh 30.06 in1017.9 mb 0.00 in0.0 mm 0.00 in0.0 mm 0.00 in0.0 mm
07:31 AM 17.3°F-8.2°C 11.9°F-11.2°C 79% 7.0 mph WNW11.3 kmh WNW 11.0 mph17.7 kmh 30.06 in1017.9 mb 0.00 in0.0 mm 0.00 in0.0 mm 0.00 in0.0 mm
07:30 AM 17.2°F-8.2°C 11.8°F-11.2°C 79% 11.0 mph NW17.7 kmh NW 18.0 mph29.0 kmh 30.06 in1017.9 mb 0.00 in0.0 mm 0.00 in0.0 mm 0.00 in0.0 mm
07:29 AM 17.2°F-8.2°C 11.8°F-11.2°C 79% 14.0 mph NW22.5 kmh NW 18.0 mph29.0 kmh 30.06 in1017.9 mb 0.00 in0.0 mm 0.00 in0.0 mm 0.00 in0.0 mm
07:28 AM 17.2°F-8.2°C 11.8°F-11.2°C 79% 9.0 mph WNW14.5 kmh WNW 18.0 mph29.0 kmh 30.06 in1017.9 mb 0.00 in0.0 mm 0.00 in0.0 mm 0.00 in0.0 mm
07:27 AM 17.1°F-8.3°C 12.0°F-11.1°C 80% 12.0 mph NW19.3 kmh NW 18.0 mph29.0 kmh 30.06 in1017.9 mb 0.00 in0.0 mm 0.00 in0.0 mm 0.00 in0.0 mm
07:26 AM 17.1°F-8.3°C 12.0°F-11.1°C 80% 12.0 mph NW19.3 kmh NW 18.0 mph29.0 kmh 30.06 in1017.9 mb 0.00 in0.0 mm 0.00 in0.0 mm 0.00 in0.0 mm
07:25 AM 17.1°F-8.3°C 11.7°F-11.3°C 79% 5.0 mph WNW8.0 kmh WNW 18.0 mph29.0 kmh 30.06 in1017.9 mb 0.00 in0.0 mm 0.00 in0.0 mm 0.00 in0.0 mm
07:24 AM 17.1°F-8.3°C 11.7°F-11.3°C 79% 7.0 mph NW11.3 kmh NW 18.0 mph29.0 kmh 30.06 in1017.9 mb 0.00 in0.0 mm 0.00 in0.0 mm 0.00 in0.0 mm
07:23 AM 17.1°F-8.3°C 11.7°F-11.3°C 79% 9.0 mph NW14.5 kmh NW 18.0 mph29.0 kmh 30.06 in1017.9 mb 0.00 in0.0 mm 0.00 in0.0 mm 0.00 in0.0 mm
07:22 AM 17.1°F-8.3°C 11.7°F-11.3°C 79% 8.0 mph NW12.9 kmh NW 18.0 mph29.0 kmh 30.06 in1017.9 mb 0.00 in0.0 mm 0.00 in0.0 mm 0.00 in0.0 mm
07:21 AM 17.1°F-8.3°C 11.7°F-11.3°C 79% 12.0 mph WNW19.3 kmh WNW 18.0 mph29.0 kmh 30.06 in1017.9 mb 0.00 in0.0 mm 0.00 in0.0 mm 0.00 in0.0 mm
07:20 AM 17.1°F-8.3°C 11.7°F-11.3°C 79% 8.0 mph WNW12.9 kmh WNW 18.0 mph29.0 kmh 30.06 in1017.9 mb 0.00 in0.0 mm 0.00 in0.0 mm 0.00 in0.0 mm
07:19 AM 17.1°F-8.3°C 11.7°F-11.3°C 79% 15.0 mph WNW24.1 kmh WNW 18.0 mph29.0 kmh 30.06 in1017.9 mb 0.00 in0.0 mm 0.00 in0.0 mm 0.00 in0.0 mm
07:18 AM 17.1°F-8.3°C 11.7°F-11.3°C 79% 13.0 mph WNW20.9 kmh WNW 18.0 mph29.0 kmh 30.06 in1017.9 mb 0.00 in0.0 mm 0.00 in0.0 mm 0.00 in0.0 mm
07:17 AM 17.1°F-8.3°C 11.4°F-11.4°C 78% 12.0 mph WNW19.3 kmh WNW 18.0 mph29.0 kmh 30.06 in1017.9 mb 0.00 in0.0 mm 0.00 in0.0 mm 0.00 in0.0 mm
07:16 AM 17.1°F-8.3°C 11.4°F-11.4°C 78% 10.0 mph NW16.1 kmh NW 18.0 mph29.0 kmh 30.05 in1017.6 mb 0.00 in0.0 mm 0.00 in0.0 mm 0.00 in0.0 mm
07:15 AM 17.1°F-8.3°C 11.4°F-11.4°C 78% 11.0 mph NW17.7 kmh NW 18.0 mph29.0 kmh 30.05 in1017.6 mb 0.00 in0.0 mm 0.00 in0.0 mm 0.00 in0.0 mm
07:14 AM 17.0°F-8.3°C 11.3°F-11.5°C 78% 10.0 mph NW16.1 kmh NW 18.0 mph29.0 kmh 30.05 in1017.6 mb 0.00 in0.0 mm 0.00 in0.0 mm 0.00 in0.0 mm
07:13 AM 17.1°F-8.3°C 11.4°F-11.4°C 78% 10.0 mph NW16.1 kmh NW 18.0 mph29.0 kmh 30.05 in1017.6 mb 0.00 in0.0 mm 0.00 in0.0 mm 0.00 in0.0 mm
07:12 AM 17.1°F-8.3°C 11.4°F-11.4°C 78% 10.0 mph NW16.1 kmh NW 18.0 mph29.0 kmh 30.05 in1017.6 mb 0.00 in0.0 mm 0.00 in0.0 mm 0.00 in0.0 mm
07:11 AM 17.1°F-8.3°C 11.4°F-11.4°C 78% 10.0 mph WNW16.1 kmh WNW 18.0 mph29.0 kmh 30.05 in1017.6 mb 0.00 in0.0 mm 0.00 in0.0 mm 0.00 in0.0 mm
07:10 AM 17.1°F-8.3°C 11.4°F-11.4°C 78% 7.0 mph NW11.3 kmh NW 18.0 mph29.0 kmh 30.05 in1017.6 mb 0.00 in0.0 mm 0.00 in0.0 mm 0.00 in0.0 mm
07:09 AM 17.0°F-8.3°C 11.3°F-11.5°C 78% 11.0 mph NW17.7 kmh NW 18.0 mph29.0 kmh 30.05 in1017.6 mb 0.00 in0.0 mm 0.00 in0.0 mm 0.00 in0.0 mm
07:08 AM 17.0°F-8.3°C 11.3°F-11.5°C 78% 9.0 mph NW14.5 kmh NW 18.0 mph29.0 kmh 30.05 in1017.6 mb 0.00 in0.0 mm 0.00 in0.0 mm 0.00 in0.0 mm
07:07 AM 17.0°F-8.3°C 11.3°F-11.5°C 78% 11.0 mph WNW17.7 kmh WNW 18.0 mph29.0 kmh 30.05 in1017.6 mb 0.00 in0.0 mm 0.00 in0.0 mm 0.00 in0.0 mm
07:06 AM 17.1°F-8.3°C 11.4°F-11.4°C 78% 12.0 mph NW19.3 kmh NW 18.0 mph29.0 kmh 30.05 in1017.6 mb 0.00 in0.0 mm 0.00 in0.0 mm 0.00 in0.0 mm
07:05 AM 17.1°F-8.3°C 11.4°F-11.4°C 78% 10.0 mph NW16.1 kmh NW 18.0 mph29.0 kmh 30.05 in1017.6 mb 0.00 in0.0 mm 0.00 in0.0 mm 0.00 in0.0 mm
07:04 AM 17.1°F-8.3°C 11.4°F-11.4°C 78% 9.0 mph NW14.5 kmh NW 18.0 mph29.0 kmh 30.05 in1017.6 mb 0.00 in0.0 mm 0.00 in0.0 mm 0.00 in0.0 mm
07:03 AM 17.1°F-8.3°C 11.4°F-11.4°C 78% 14.0 mph NW22.5 kmh NW 18.0 mph29.0 kmh 30.05 in1017.6 mb 0.00 in0.0 mm 0.00 in0.0 mm 0.00 in0.0 mm
07:02 AM 17.1°F-8.3°C 11.4°F-11.4°C 78% 11.0 mph NW17.7 kmh NW 18.0 mph29.0 kmh 30.05 in1017.6 mb 0.00 in0.0 mm 0.00 in0.0 mm 0.00 in0.0 mm
07:01 AM 17.1°F-8.3°C 11.4°F-11.4°C 78% 10.0 mph NW16.1 kmh NW 15.0 mph24.1 kmh 30.05 in1017.6 mb 0.00 in0.0 mm 0.00 in0.0 mm 0.00 in0.0 mm
07:00 AM 17.1°F-8.3°C 11.4°F-11.4°C 78% 11.0 mph NW17.7 kmh NW 20.0 mph32.2 kmh 30.05 in1017.6 mb 0.00 in0.0 mm 0.00 in0.0 mm 0.00 in0.0 mm
06:59 AM 17.1°F-8.3°C 11.4°F-11.4°C 78% 11.0 mph NW17.7 kmh NW 20.0 mph32.2 kmh 30.05 in1017.6 mb 0.00 in0.0 mm 0.00 in0.0 mm 0.00 in0.0 mm
06:58 AM 17.0°F-8.3°C 11.3°F-11.5°C 78% 18.0 mph NW29.0 kmh NW 20.0 mph32.2 kmh 30.05 in1017.6 mb 0.00 in0.0 mm 0.00 in0.0 mm 0.00 in0.0 mm
06:57 AM 17.0°F-8.3°C 11.3°F-11.5°C 78% 9.0 mph NW14.5 kmh NW 20.0 mph32.2 kmh 30.05 in1017.6 mb 0.00 in0.0 mm 0.00 in0.0 mm 0.00 in0.0 mm
06:56 AM 17.0°F-8.3°C 11.3°F-11.5°C 78% 9.0 mph NW14.5 kmh NW 20.0 mph32.2 kmh 30.05 in1017.6 mb 0.00 in0.0 mm 0.00 in0.0 mm 0.00 in0.0 mm
06:55 AM 17.0°F-8.3°C 11.3°F-11.5°C 78% 16.0 mph NW25.7 kmh NW 20.0 mph32.2 kmh 30.05 in1017.6 mb 0.00 in0.0 mm 0.00 in0.0 mm 0.00 in0.0 mm
06:54 AM 17.0°F-8.3°C 11.3°F-11.5°C 78% 12.0 mph NW19.3 kmh NW 20.0 mph32.2 kmh 30.05 in1017.6 mb 0.00 in0.0 mm 0.00 in0.0 mm 0.00 in0.0 mm
06:53 AM 17.0°F-8.3°C 11.3°F-11.5°C 78% 10.0 mph NW16.1 kmh NW 20.0 mph32.2 kmh 30.05 in1017.6 mb 0.00 in0.0 mm 0.00 in0.0 mm 0.00 in0.0 mm
06:52 AM 17.0°F-8.3°C 11.3°F-11.5°C 78% 14.0 mph NW22.5 kmh NW 20.0 mph32.2 kmh 30.05 in1017.6 mb 0.00 in0.0 mm 0.00 in0.0 mm 0.00 in0.0 mm
06:51 AM 16.9°F-8.4°C 11.2°F-11.6°C 78% 17.0 mph NW27.4 kmh NW 20.0 mph32.2 kmh 30.05 in1017.6 mb 0.00 in0.0 mm 0.00 in0.0 mm 0.00 in0.0 mm
06:50 AM 16.9°F-8.4°C 11.2°F-11.6°C 78% 14.0 mph NW22.5 kmh NW 20.0 mph32.2 kmh 30.05 in1017.6 mb 0.00 in0.0 mm 0.00 in0.0 mm 0.00 in0.0 mm
06:49 AM 16.9°F-8.4°C 11.2°F-11.6°C 78% 9.0 mph NW14.5 kmh NW 20.0 mph32.2 kmh 30.05 in1017.6 mb 0.00 in0.0 mm 0.00 in0.0 mm 0.00 in0.0 mm
06:48 AM 16.9°F-8.4°C 11.2°F-11.6°C 78% 10.0 mph NW16.1 kmh NW 20.0 mph32.2 kmh 30.05 in1017.6 mb 0.00 in0.0 mm 0.00 in0.0 mm 0.00 in0.0 mm
06:47 AM 16.9°F-8.4°C 11.2°F-11.6°C 78% 14.0 mph WNW22.5 kmh WNW 20.0 mph32.2 kmh 30.05 in1017.6 mb 0.00 in0.0 mm 0.00 in0.0 mm 0.00 in0.0 mm
06:46 AM 16.9°F-8.4°C 11.2°F-11.6°C 78% 15.0 mph NW24.1 kmh NW 20.0 mph32.2 kmh 30.05 in1017.6 mb 0.00 in0.0 mm 0.00 in0.0 mm 0.00 in0.0 mm
06:45 AM 16.9°F-8.4°C 11.2°F-11.6°C 78% 12.0 mph NW19.3 kmh NW 20.0 mph32.2 kmh 30.05 in1017.6 mb 0.00 in0.0 mm 0.00 in0.0 mm 0.00 in0.0 mm
06:44 AM 16.9°F-8.4°C 11.2°F-11.6°C 78% 13.0 mph NW20.9 kmh NW 20.0 mph32.2 kmh 30.05 in1017.6 mb 0.00 in0.0 mm 0.00 in0.0 mm 0.00 in0.0 mm
06:43 AM 16.9°F-8.4°C 11.2°F-11.6°C 78% 10.0 mph WNW16.1 kmh WNW 20.0 mph32.2 kmh 30.05 in1017.6 mb 0.00 in0.0 mm 0.00 in0.0 mm 0.00 in0.0 mm
06:42 AM 16.9°F-8.4°C 11.2°F-11.6°C 78% 7.0 mph NW11.3 kmh NW 20.0 mph32.2 kmh 30.05 in1017.6 mb 0.00 in0.0 mm 0.00 in0.0 mm 0.00 in0.0 mm
06:41 AM 16.9°F-8.4°C 11.2°F-11.6°C 78% 10.0 mph NW16.1 kmh NW 20.0 mph32.2 kmh 30.05 in1017.6 mb 0.00 in0.0 mm 0.00 in0.0 mm 0.00 in0.0 mm
06:40 AM 17.0°F-8.3°C 11.1°F-11.6°C 77% 11.0 mph NW17.7 kmh NW 20.0 mph32.2 kmh 30.05 in1017.6 mb 0.00 in0.0 mm 0.00 in0.0 mm 0.00 in0.0 mm
06:39 AM 17.0°F-8.3°C 11.1°F-11.6°C 77% 5.0 mph NW8.0 kmh NW 20.0 mph32.2 kmh 30.05 in1017.6 mb 0.00 in0.0 mm 0.00 in0.0 mm 0.00 in0.0 mm
06:38 AM 17.0°F-8.3°C 11.1°F-11.6°C 77% 12.0 mph NW19.3 kmh NW 20.0 mph32.2 kmh 30.05 in1017.6 mb 0.00 in0.0 mm 0.00 in0.0 mm 0.00 in0.0 mm
06:37 AM 17.0°F-8.3°C 11.1°F-11.6°C 77% 5.0 mph NW8.0 kmh NW 20.0 mph32.2 kmh 30.05 in1017.6 mb 0.00 in0.0 mm 0.00 in0.0 mm 0.00 in0.0 mm
06:36 AM 17.0°F-8.3°C 11.1°F-11.6°C 77% 16.0 mph NW25.7 kmh NW 20.0 mph32.2 kmh 30.05 in1017.6 mb 0.00 in0.0 mm 0.00 in0.0 mm 0.00 in0.0 mm
06:35 AM 16.9°F-8.4°C 11.0°F-11.7°C 77% 10.0 mph NW16.1 kmh NW 16.0 mph25.7 kmh 30.05 in1017.6 mb 0.00 in0.0 mm 0.00 in0.0 mm 0.00 in0.0 mm
06:34 AM 17.0°F-8.3°C 11.1°F-11.6°C 77% 13.0 mph NW20.9 kmh NW 15.0 mph24.1 kmh 30.05 in1017.6 mb 0.00 in0.0 mm 0.00 in0.0 mm 0.00 in0.0 mm
06:33 AM 17.0°F-8.3°C 11.1°F-11.6°C 77% 11.0 mph NW17.7 kmh NW 15.0 mph24.1 kmh 30.05 in1017.6 mb 0.00 in0.0 mm 0.00 in0.0 mm 0.00 in0.0 mm
06:32 AM 17.0°F-8.3°C 11.1°F-11.6°C 77% 8.0 mph NW12.9 kmh NW 15.0 mph24.1 kmh 30.05 in1017.6 mb 0.00 in0.0 mm 0.00 in0.0 mm 0.00 in0.0 mm
06:31 AM 17.0°F-8.3°C 11.1°F-11.6°C 77% 11.0 mph NW17.7 kmh NW 15.0 mph24.1 kmh 30.05 in1017.6 mb 0.00 in0.0 mm 0.00 in0.0 mm 0.00 in0.0 mm
06:30 AM 17.0°F-8.3°C 11.1°F-11.6°C 77% 16.0 mph NW25.7 kmh NW 21.0 mph33.8 kmh 30.05 in1017.6 mb 0.00 in0.0 mm 0.00 in0.0 mm 0.00 in0.0 mm
06:29 AM 17.0°F-8.3°C 11.1°F-11.6°C 77% 15.0 mph NW24.1 kmh NW 21.0 mph33.8 kmh 30.05 in1017.6 mb 0.00 in0.0 mm 0.00 in0.0 mm 0.00 in0.0 mm
06:28 AM 17.0°F-8.3°C 11.1°F-11.6°C 77% 10.0 mph NW16.1 kmh NW 21.0 mph33.8 kmh 30.05 in1017.6 mb 0.00 in0.0 mm 0.00 in0.0 mm 0.00 in0.0 mm
06:27 AM 17.0°F-8.3°C 11.1°F-11.6°C 77% 16.0 mph NW25.7 kmh NW 21.0 mph33.8 kmh 30.05 in1017.6 mb 0.00 in0.0 mm 0.00 in0.0 mm 0.00 in0.0 mm
06:26 AM 17.0°F-8.3°C 11.1°F-11.6°C 77% 13.0 mph NW20.9 kmh NW 21.0 mph33.8 kmh 30.05 in1017.6 mb 0.00 in0.0 mm 0.00 in0.0 mm 0.00 in0.0 mm
06:25 AM 17.0°F-8.3°C 11.1°F-11.6°C 77% 12.0 mph NW19.3 kmh NW 21.0 mph33.8 kmh 30.04 in1017.3 mb 0.00 in0.0 mm 0.00 in0.0 mm 0.00 in0.0 mm
06:24 AM 17.0°F-8.3°C 11.1°F-11.6°C 77% 17.0 mph NW27.4 kmh NW 21.0 mph33.8 kmh 30.04 in1017.3 mb 0.00 in0.0 mm 0.00 in0.0 mm 0.00 in0.0 mm
06:23 AM 17.0°F-8.3°C 11.1°F-11.6°C 77% 18.0 mph NW29.0 kmh NW 21.0 mph33.8 kmh 30.05 in1017.6 mb 0.00 in0.0 mm 0.00 in0.0 mm 0.00 in0.0 mm
06:22 AM 17.0°F-8.3°C 11.1°F-11.6°C 77% 12.0 mph NW19.3 kmh NW 21.0 mph33.8 kmh 30.04 in1017.3 mb 0.00 in0.0 mm 0.00 in0.0 mm 0.00 in0.0 mm
06:21 AM 17.0°F-8.3°C 11.1°F-11.6°C 77% 11.0 mph WNW17.7 kmh WNW 21.0 mph33.8 kmh 30.04 in1017.3 mb 0.00 in0.0 mm 0.00 in0.0 mm 0.00 in0.0 mm
06:20 AM 17.0°F-8.3°C 11.1°F-11.6°C 77% 16.0 mph NW25.7 kmh NW 21.0 mph33.8 kmh 30.04 in1017.3 mb 0.00 in0.0 mm 0.00 in0.0 mm 0.00 in0.0 mm
06:19 AM 17.0°F-8.3°C 11.1°F-11.6°C 77% 11.0 mph NW17.7 kmh NW 21.0 mph33.8 kmh 30.04 in1017.3 mb 0.00 in0.0 mm 0.00 in0.0 mm 0.00 in0.0 mm
06:18 AM 17.0°F-8.3°C 11.1°F-11.6°C 77% 19.0 mph NW30.6 kmh NW 21.0 mph33.8 kmh 30.04 in1017.3 mb 0.00 in0.0 mm 0.00 in0.0 mm 0.00 in0.0 mm
06:17 AM 17.0°F-8.3°C 11.1°F-11.6°C 77% 13.0 mph NW20.9 kmh NW 21.0 mph33.8 kmh 30.04 in1017.3 mb 0.00 in0.0 mm 0.00 in0.0 mm 0.00 in0.0 mm
06:16 AM 17.0°F-8.3°C 11.1°F-11.6°C 77% 17.0 mph NW27.4 kmh NW 21.0 mph33.8 kmh 30.04 in1017.3 mb 0.00 in0.0 mm 0.00 in0.0 mm 0.00 in0.0 mm
06:15 AM 17.0°F-8.3°C 11.1°F-11.6°C 77% 10.0 mph NW16.1 kmh NW 21.0 mph33.8 kmh 30.04 in1017.3 mb 0.00 in0.0 mm 0.00 in0.0 mm 0.00 in0.0 mm
06:14 AM 17.0°F-8.3°C 11.1°F-11.6°C 77% 13.0 mph NW20.9 kmh NW 21.0 mph33.8 kmh 30.04 in1017.3 mb 0.00 in0.0 mm 0.00 in0.0 mm 0.00 in0.0 mm
06:13 AM 17.0°F-8.3°C 11.1°F-11.6°C 77% 14.0 mph NW22.5 kmh NW 21.0 mph33.8 kmh 30.04 in1017.3 mb 0.00 in0.0 mm 0.00 in0.0 mm 0.00 in0.0 mm
06:12 AM 17.0°F-8.3°C 11.1°F-11.6°C 77% 14.0 mph NW22.5 kmh NW 21.0 mph33.8 kmh 30.04 in1017.3 mb 0.00 in0.0 mm 0.00 in0.0 mm 0.00 in0.0 mm
06:11 AM 17.0°F-8.3°C 11.1°F-11.6°C 77% 17.0 mph NW27.4 kmh NW 21.0 mph33.8 kmh 30.04 in1017.3 mb 0.00 in0.0 mm 0.00 in0.0 mm 0.00 in0.0 mm
06:10 AM 17.0°F-8.3°C 11.1°F-11.6°C 77% 14.0 mph NW22.5 kmh NW 21.0 mph33.8 kmh 30.04 in1017.3 mb 0.00 in0.0 mm 0.00 in0.0 mm 0.00 in0.0 mm
06:09 AM 17.0°F-8.3°C 11.1°F-11.6°C 77% 12.0 mph NW19.3 kmh NW 21.0 mph33.8 kmh 30.04 in1017.3 mb 0.00 in0.0 mm 0.00 in0.0 mm 0.00 in0.0 mm
06:08 AM 16.9°F-8.4°C 11.0°F-11.7°C 77% 20.0 mph NW32.2 kmh NW 21.0 mph33.8 kmh 30.04 in1017.3 mb 0.00 in0.0 mm 0.00 in0.0 mm 0.00 in0.0 mm
06:07 AM 16.9°F-8.4°C 11.0°F-11.7°C 77% 16.0 mph NW25.7 kmh NW 20.0 mph32.2 kmh 30.04 in1017.3 mb 0.00 in0.0 mm 0.00 in0.0 mm 0.00 in0.0 mm
06:06 AM 16.9°F-8.4°C 11.0°F-11.7°C 77% 19.0 mph NW30.6 kmh NW 20.0 mph32.2 kmh 30.04 in1017.3 mb 0.00 in0.0 mm 0.00 in0.0 mm 0.00 in0.0 mm
06:05 AM 16.9°F-8.4°C 11.0°F-11.7°C 77% 12.0 mph NW19.3 kmh NW 20.0 mph32.2 kmh 30.03 in1016.9 mb 0.00 in0.0 mm 0.00 in0.0 mm 0.00 in0.0 mm
06:04 AM 16.9°F-8.4°C 11.0°F-11.7°C 77% 17.0 mph NW27.4 kmh NW 20.0 mph32.2 kmh 30.03 in1016.9 mb 0.00 in0.0 mm 0.00 in0.0 mm 0.00 in0.0 mm
06:03 AM 16.9°F-8.4°C 11.0°F-11.7°C 77% 20.0 mph NW32.2 kmh NW 20.0 mph32.2 kmh 30.03 in1016.9 mb 0.00 in0.0 mm 0.00 in0.0 mm 0.00 in0.0 mm
06:02 AM 16.9°F-8.4°C 11.0°F-11.7°C 77% 19.0 mph NW30.6 kmh NW 19.0 mph30.6 kmh 30.04 in1017.3 mb 0.00 in0.0 mm 0.00 in0.0 mm 0.00 in0.0 mm
06:01 AM 16.9°F-8.4°C 11.0°F-11.7°C 77% 9.0 mph NNW14.5 kmh NNW 17.0 mph27.4 kmh 30.04 in1017.3 mb 0.00 in0.0 mm 0.00 in0.0 mm 0.00 in0.0 mm
06:00 AM 16.9°F-8.4°C 11.0°F-11.7°C 77% 10.0 mph NW16.1 kmh NW 25.0 mph40.2 kmh 30.03 in1016.9 mb 0.00 in0.0 mm 0.00 in0.0 mm 0.00 in0.0 mm
05:59 AM 16.9°F-8.4°C 11.0°F-11.7°C 77% 12.0 mph NW19.3 kmh NW 25.0 mph40.2 kmh 30.04 in1017.3 mb 0.00 in0.0 mm 0.00 in0.0 mm 0.00 in0.0 mm
05:58 AM 17.0°F-8.3°C 11.1°F-11.6°C 77% 19.0 mph NW30.6 kmh NW 25.0 mph40.2 kmh 30.04 in1017.3 mb 0.00 in0.0 mm 0.00 in0.0 mm 0.00 in0.0 mm
05:57 AM 17.0°F-8.3°C 11.1°F-11.6°C 77% 19.0 mph NW30.6 kmh NW 25.0 mph40.2 kmh 30.04 in1017.3 mb 0.00 in0.0 mm 0.00 in0.0 mm 0.00 in0.0 mm
05:56 AM 17.0°F-8.3°C 11.1°F-11.6°C 77% 19.0 mph NW30.6 kmh NW 25.0 mph40.2 kmh 30.04 in1017.3 mb 0.00 in0.0 mm 0.00 in0.0 mm 0.00 in0.0 mm
05:55 AM 17.0°F-8.3°C 11.1°F-11.6°C 77% 19.0 mph NW30.6 kmh NW 25.0 mph40.2 kmh 30.04 in1017.3 mb 0.00 in0.0 mm 0.00 in0.0 mm 0.00 in0.0 mm
05:54 AM 17.0°F-8.3°C 11.1°F-11.6°C 77% 12.0 mph NW19.3 kmh NW 25.0 mph40.2 kmh 30.04 in1017.3 mb 0.00 in0.0 mm 0.00 in0.0 mm 0.00 in0.0 mm
05:53 AM 17.0°F-8.3°C 11.1°F-11.6°C 77% 11.0 mph NW17.7 kmh NW 25.0 mph40.2 kmh 30.04 in1017.3 mb 0.00 in0.0 mm 0.00 in0.0 mm 0.00 in0.0 mm
05:52 AM 17.0°F-8.3°C 11.1°F-11.6°C 77% 12.0 mph NW19.3 kmh NW 25.0 mph40.2 kmh 30.04 in1017.3 mb 0.00 in0.0 mm 0.00 in0.0 mm 0.00 in0.0 mm
05:51 AM 17.0°F-8.3°C 11.1°F-11.6°C 77% 18.0 mph NW29.0 kmh NW 25.0 mph40.2 kmh 30.04 in1017.3 mb 0.00 in0.0 mm 0.00 in0.0 mm 0.00 in0.0 mm
05:50 AM 17.0°F-8.3°C 11.1°F-11.6°C 77% 15.0 mph NNW24.1 kmh NNW 25.0 mph40.2 kmh 30.04 in1017.3 mb 0.00 in0.0 mm 0.00 in0.0 mm 0.00 in0.0 mm
05:49 AM 17.0°F-8.3°C 11.1°F-11.6°C 77% 19.0 mph NW30.6 kmh NW 25.0 mph40.2 kmh 30.04 in1017.3 mb 0.00 in0.0 mm 0.00 in0.0 mm 0.00 in0.0 mm
05:48 AM 17.0°F-8.3°C 11.1°F-11.6°C 77% 17.0 mph NW27.4 kmh NW 25.0 mph40.2 kmh 30.04 in1017.3 mb 0.00 in0.0 mm 0.00 in0.0 mm 0.00 in0.0 mm
05:47 AM 17.0°F-8.3°C 11.1°F-11.6°C 77% 17.0 mph NW27.4 kmh NW 25.0 mph40.2 kmh 30.04 in1017.3 mb 0.00 in0.0 mm 0.00 in0.0 mm 0.00 in0.0 mm
05:46 AM 17.0°F-8.3°C 11.1°F-11.6°C 77% 14.0 mph NW22.5 kmh NW 25.0 mph40.2 kmh 30.04 in1017.3 mb 0.00 in0.0 mm 0.00 in0.0 mm 0.00 in0.0 mm
05:45 AM 16.9°F-8.4°C 11.0°F-11.7°C 77% 18.0 mph NW29.0 kmh NW 25.0 mph40.2 kmh 30.04 in1017.3 mb 0.00 in0.0 mm 0.00 in0.0 mm 0.00 in0.0 mm
05:44 AM 16.9°F-8.4°C 11.0°F-11.7°C 77% 13.0 mph NW20.9 kmh NW 25.0 mph40.2 kmh 30.04 in1017.3 mb 0.00 in0.0 mm 0.00 in0.0 mm 0.00 in0.0 mm
05:43 AM 16.9°F-8.4°C 11.0°F-11.7°C 77% 13.0 mph NW20.9 kmh NW 25.0 mph40.2 kmh 30.04 in1017.3 mb 0.00 in0.0 mm 0.00 in0.0 mm 0.00 in0.0 mm
05:42 AM 16.9°F-8.4°C 11.0°F-11.7°C 77% 16.0 mph NW25.7 kmh NW 25.0 mph40.2 kmh 30.04 in1017.3 mb 0.00 in0.0 mm 0.00 in0.0 mm 0.00 in0.0 mm
05:41 AM 16.9°F-8.4°C 11.0°F-11.7°C 77% 13.0 mph NW20.9 kmh NW 25.0 mph40.2 kmh 30.04 in1017.3 mb 0.00 in0.0 mm 0.00 in0.0 mm 0.00 in0.0 mm
05:40 AM 16.9°F-8.4°C 11.0°F-11.7°C 77% 9.0 mph NW14.5 kmh NW 25.0 mph40.2 kmh 30.04 in1017.3 mb 0.00 in0.0 mm 0.00 in0.0 mm 0.00 in0.0 mm
05:39 AM 17.0°F-8.3°C 11.1°F-11.6°C 77% 10.0 mph NW16.1 kmh NW 25.0 mph40.2 kmh 30.03 in1016.9 mb 0.00 in0.0 mm 0.00 in0.0 mm 0.00 in0.0 mm
05:38 AM 17.0°F-8.3°C 11.1°F-11.6°C 77% 12.0 mph NW19.3 kmh NW 25.0 mph40.2 kmh 30.03 in1016.9 mb 0.00 in0.0 mm 0.00 in0.0 mm 0.00 in0.0 mm
05:37 AM 17.0°F-8.3°C 11.1°F-11.6°C 77% 10.0 mph NW16.1 kmh NW 25.0 mph40.2 kmh 30.03 in1016.9 mb 0.00 in0.0 mm 0.00 in0.0 mm 0.00 in0.0 mm
05:36 AM 16.9°F-8.4°C 11.0°F-11.7°C 77% 16.0 mph NW25.7 kmh NW 25.0 mph40.2 kmh 30.03 in1016.9 mb 0.00 in0.0 mm 0.00 in0.0 mm 0.00 in0.0 mm
05:35 AM 17.0°F-8.3°C 11.1°F-11.6°C 77% 15.0 mph WNW24.1 kmh WNW 25.0 mph40.2 kmh 30.03 in1016.9 mb 0.00 in0.0 mm 0.00 in0.0 mm 0.00 in0.0 mm
05:34 AM 17.0°F-8.3°C 11.1°F-11.6°C 77% 11.0 mph NW17.7 kmh NW 25.0 mph40.2 kmh 30.03 in1016.9 mb 0.00 in0.0 mm 0.00 in0.0 mm 0.00 in0.0 mm
05:33 AM 17.0°F-8.3°C 11.1°F-11.6°C 77% 21.0 mph NW33.8 kmh NW 25.0 mph40.2 kmh 30.03 in1016.9 mb 0.00 in0.0 mm 0.00 in0.0 mm 0.00 in0.0 mm
05:32 AM 17.0°F-8.3°C 11.1°F-11.6°C 77% 17.0 mph NW27.4 kmh NW 22.0 mph35.4 kmh 30.03 in1016.9 mb 0.00 in0.0 mm 0.00 in0.0 mm 0.00 in0.0 mm
05:31 AM 17.0°F-8.3°C 11.1°F-11.6°C 77% 15.0 mph WNW24.1 kmh WNW 22.0 mph35.4 kmh 30.03 in1016.9 mb 0.00 in0.0 mm 0.00 in0.0 mm 0.00 in0.0 mm
05:30 AM 17.0°F-8.3°C 11.1°F-11.6°C 77% 16.0 mph NW25.7 kmh NW 25.0 mph40.2 kmh 30.03 in1016.9 mb 0.00 in0.0 mm 0.00 in0.0 mm 0.00 in0.0 mm
05:29 AM 17.0°F-8.3°C 11.1°F-11.6°C 77% 16.0 mph NW25.7 kmh NW 25.0 mph40.2 kmh 30.03 in1016.9 mb 0.00 in0.0 mm 0.00 in0.0 mm 0.00 in0.0 mm
05:28 AM 17.0°F-8.3°C 11.1°F-11.6°C 77% 18.0 mph NW29.0 kmh NW 25.0 mph40.2 kmh 30.03 in1016.9 mb 0.00 in0.0 mm 0.00 in0.0 mm 0.00 in0.0 mm
05:27 AM 17.0°F-8.3°C 11.1°F-11.6°C 77% 18.0 mph NW29.0 kmh NW 25.0 mph40.2 kmh 30.03 in1016.9 mb 0.00 in0.0 mm 0.00 in0.0 mm 0.00 in0.0 mm
05:26 AM 16.9°F-8.4°C 11.0°F-11.7°C 77% 17.0 mph NW27.4 kmh NW 25.0 mph40.2 kmh 30.04 in1017.3 mb 0.00 in0.0 mm 0.00 in0.0 mm 0.00 in0.0 mm
05:25 AM 17.0°F-8.3°C 11.1°F-11.6°C 77% 14.0 mph NW22.5 kmh NW 25.0 mph40.2 kmh 30.03 in1016.9 mb 0.00 in0.0 mm 0.00 in0.0 mm 0.00 in0.0 mm
05:24 AM 17.0°F-8.3°C 11.1°F-11.6°C 77% 14.0 mph NW22.5 kmh NW 25.0 mph40.2 kmh 30.04 in1017.3 mb 0.00 in0.0 mm 0.00 in0.0 mm 0.00 in0.0 mm
05:23 AM 17.0°F-8.3°C 11.1°F-11.6°C 77% 14.0 mph NW22.5 kmh NW 25.0 mph40.2 kmh 30.04 in1017.3 mb 0.00 in0.0 mm 0.00 in0.0 mm 0.00 in0.0 mm
05:22 AM 17.0°F-8.3°C 11.1°F-11.6°C 77% 14.0 mph NW22.5 kmh NW 25.0 mph40.2 kmh 30.03 in1016.9 mb 0.00 in0.0 mm 0.00 in0.0 mm 0.00 in0.0 mm
05:21 AM 17.0°F-8.3°C 11.1°F-11.6°C 77% 14.0 mph NW22.5 kmh NW 25.0 mph40.2 kmh 30.04 in1017.3 mb 0.00 in0.0 mm 0.00 in0.0 mm 0.00 in0.0 mm
05:20 AM 17.0°F-8.3°C 11.1°F-11.6°C 77% 18.0 mph NW29.0 kmh NW 25.0 mph40.2 kmh 30.04 in1017.3 mb 0.00 in0.0 mm 0.00 in0.0 mm 0.00 in0.0 mm
05:19 AM 17.0°F-8.3°C 11.1°F-11.6°C 77% 16.0 mph NW25.7 kmh NW 25.0 mph40.2 kmh 30.04 in1017.3 mb 0.00 in0.0 mm 0.00 in0.0 mm 0.00 in0.0 mm
05:18 AM 17.0°F-8.3°C 11.1°F-11.6°C 77% 11.0 mph NW17.7 kmh NW 25.0 mph40.2 kmh 30.04 in1017.3 mb 0.00 in0.0 mm 0.00 in0.0 mm 0.00 in0.0 mm
05:17 AM 17.0°F-8.3°C 11.1°F-11.6°C 77% 21.0 mph NW33.8 kmh NW 25.0 mph40.2 kmh 30.04 in1017.3 mb 0.00 in0.0 mm 0.00 in0.0 mm 0.00 in0.0 mm
05:16 AM 17.0°F-8.3°C 11.1°F-11.6°C 77% 23.0 mph NW37.0 kmh NW 25.0 mph40.2 kmh 30.04 in1017.3 mb 0.00 in0.0 mm 0.00 in0.0 mm 0.00 in0.0 mm
05:15 AM 17.0°F-8.3°C 11.1°F-11.6°C 77% 11.0 mph NW17.7 kmh NW 24.0 mph38.6 kmh 30.04 in1017.3 mb 0.00 in0.0 mm 0.00 in0.0 mm 0.00 in0.0 mm
05:14 AM 17.0°F-8.3°C 11.3°F-11.5°C 78% 19.0 mph NW30.6 kmh NW 24.0 mph38.6 kmh 30.03 in1016.9 mb 0.00 in0.0 mm 0.00 in0.0 mm 0.00 in0.0 mm
05:13 AM 16.9°F-8.4°C 11.2°F-11.6°C 78% 18.0 mph WNW29.0 kmh WNW 24.0 mph38.6 kmh 30.04 in1017.3 mb 0.00 in0.0 mm 0.00 in0.0 mm 0.00 in0.0 mm
05:12 AM 16.9°F-8.4°C 11.2°F-11.6°C 78% 13.0 mph NW20.9 kmh NW 24.0 mph38.6 kmh 30.03 in1016.9 mb 0.00 in0.0 mm 0.00 in0.0 mm 0.00 in0.0 mm
05:11 AM 17.0°F-8.3°C 11.3°F-11.5°C 78% 18.0 mph NW29.0 kmh NW 24.0 mph38.6 kmh 30.03 in1016.9 mb 0.00 in0.0 mm 0.00 in0.0 mm 0.00 in0.0 mm
05:10 AM 16.9°F-8.4°C 11.2°F-11.6°C 78% 14.0 mph NW22.5 kmh NW 24.0 mph38.6 kmh 30.03 in1016.9 mb 0.00 in0.0 mm 0.00 in0.0 mm 0.00 in0.0 mm
05:09 AM 16.9°F-8.4°C 11.2°F-11.6°C 78% 16.0 mph NW25.7 kmh NW 24.0 mph38.6 kmh 30.03 in1016.9 mb 0.00 in0.0 mm 0.00 in0.0 mm 0.00 in0.0 mm
05:08 AM 17.0°F-8.3°C 11.3°F-11.5°C 78% 11.0 mph NW17.7 kmh NW 24.0 mph38.6 kmh 30.03 in1016.9 mb 0.00 in0.0 mm 0.00 in0.0 mm 0.00 in0.0 mm
05:07 AM 16.9°F-8.4°C 11.2°F-11.6°C 78% 18.0 mph WNW29.0 kmh WNW 24.0 mph38.6 kmh 30.03 in1016.9 mb 0.00 in0.0 mm 0.00 in0.0 mm 0.00 in0.0 mm
05:06 AM 16.9°F-8.4°C 11.2°F-11.6°C 78% 20.0 mph WNW32.2 kmh WNW 24.0 mph38.6 kmh 30.03 in1016.9 mb 0.00 in0.0 mm 0.00 in0.0 mm 0.00 in0.0 mm
05:05 AM 16.9°F-8.4°C 11.2°F-11.6°C 78% 20.0 mph NW32.2 kmh NW 22.0 mph35.4 kmh 30.03 in1016.9 mb 0.00 in0.0 mm 0.00 in0.0 mm 0.00 in0.0 mm
05:04 AM 16.9°F-8.4°C 11.2°F-11.6°C 78% 11.0 mph NW17.7 kmh NW 22.0 mph35.4 kmh 30.03 in1016.9 mb 0.00 in0.0 mm 0.00 in0.0 mm 0.00 in0.0 mm
05:03 AM 16.9°F-8.4°C 11.2°F-11.6°C 78% 16.0 mph NW25.7 kmh NW 22.0 mph35.4 kmh 30.03 in1016.9 mb 0.00 in0.0 mm 0.00 in0.0 mm 0.00 in0.0 mm
05:02 AM 16.9°F-8.4°C 11.2°F-11.6°C 78% 20.0 mph NW32.2 kmh NW 20.0 mph32.2 kmh 30.03 in1016.9 mb 0.00 in0.0 mm 0.00 in0.0 mm 0.00 in0.0 mm
05:01 AM 17.0°F-8.3°C 11.3°F-11.5°C 78% 12.0 mph NW19.3 kmh NW 20.0 mph32.2 kmh 30.03 in1016.9 mb 0.00 in0.0 mm 0.00 in0.0 mm 0.00 in0.0 mm
05:00 AM 17.0°F-8.3°C 11.3°F-11.5°C 78% 14.0 mph NW22.5 kmh NW 27.0 mph43.5 kmh 30.03 in1016.9 mb 0.00 in0.0 mm 0.00 in0.0 mm 0.00 in0.0 mm
04:59 AM 17.0°F-8.3°C 11.1°F-11.6°C 77% 14.0 mph NW22.5 kmh NW 27.0 mph43.5 kmh 30.03 in1016.9 mb 0.00 in0.0 mm 0.00 in0.0 mm 0.00 in0.0 mm
04:58 AM 17.0°F-8.3°C 11.1°F-11.6°C 77% 12.0 mph NW19.3 kmh NW 27.0 mph43.5 kmh 30.03 in1016.9 mb 0.00 in0.0 mm 0.00 in0.0 mm 0.00 in0.0 mm
04:57 AM 17.0°F-8.3°C 11.1°F-11.6°C 77% 12.0 mph WNW19.3 kmh WNW 27.0 mph43.5 kmh 30.03 in1016.9 mb 0.00 in0.0 mm 0.00 in0.0 mm 0.00 in0.0 mm
04:56 AM 17.0°F-8.3°C 11.1°F-11.6°C 77% 22.0 mph WNW35.4 kmh WNW 27.0 mph43.5 kmh 30.03 in1016.9 mb 0.00 in0.0 mm 0.00 in0.0 mm 0.00 in0.0 mm
04:55 AM 17.0°F-8.3°C 11.1°F-11.6°C 77% 17.0 mph NW27.4 kmh NW 27.0 mph43.5 kmh 30.03 in1016.9 mb 0.00 in0.0 mm 0.00 in0.0 mm 0.00 in0.0 mm
04:54 AM 17.0°F-8.3°C 11.1°F-11.6°C 77% 14.0 mph NW22.5 kmh NW 27.0 mph43.5 kmh 30.03 in1016.9 mb 0.00 in0.0 mm 0.00 in0.0 mm 0.00 in0.0 mm
04:53 AM 17.0°F-8.3°C 11.1°F-11.6°C 77% 13.0 mph WNW20.9 kmh WNW 27.0 mph43.5 kmh 30.03 in1016.9 mb 0.00 in0.0 mm 0.00 in0.0 mm 0.00 in0.0 mm
04:52 AM 17.0°F-8.3°C 11.1°F-11.6°C 77% 18.0 mph NW29.0 kmh NW 27.0 mph43.5 kmh 30.03 in1016.9 mb 0.00 in0.0 mm 0.00 in0.0 mm 0.00 in0.0 mm
04:51 AM 17.1°F-8.3°C 11.2°F-11.6°C 77% 11.0 mph NW17.7 kmh NW 27.0 mph43.5 kmh 30.03 in1016.9 mb 0.00 in0.0 mm 0.00 in0.0 mm 0.00 in0.0 mm
04:50 AM 17.1°F-8.3°C 11.2°F-11.6°C 77% 15.0 mph NW24.1 kmh NW 27.0 mph43.5 kmh 30.03 in1016.9 mb 0.00 in0.0 mm 0.00 in0.0 mm 0.00 in0.0 mm
04:49 AM 17.1°F-8.3°C 11.2°F-11.6°C 77% 16.0 mph WNW25.7 kmh WNW 27.0 mph43.5 kmh 30.03 in1016.9 mb 0.00 in0.0 mm 0.00 in0.0 mm 0.00 in0.0 mm
04:48 AM 17.1°F-8.3°C 11.2°F-11.6°C 77% 20.0 mph NW32.2 kmh NW 27.0 mph43.5 kmh 30.03 in1016.9 mb 0.00 in0.0 mm 0.00 in0.0 mm 0.00 in0.0 mm
04:47 AM 17.1°F-8.3°C 11.2°F-11.6°C 77% 15.0 mph NW24.1 kmh NW 27.0 mph43.5 kmh 30.03 in1016.9 mb 0.00 in0.0 mm 0.00 in0.0 mm 0.00 in0.0 mm
04:46 AM 17.0°F-8.3°C 11.1°F-11.6°C 77% 19.0 mph NW30.6 kmh NW 27.0 mph43.5 kmh 30.03 in1016.9 mb 0.00 in0.0 mm 0.00 in0.0 mm 0.00 in0.0 mm
04:45 AM 17.1°F-8.3°C 11.2°F-11.6°C 77% 19.0 mph NW30.6 kmh NW 27.0 mph43.5 kmh 30.03 in1016.9 mb 0.00 in0.0 mm 0.00 in0.0 mm 0.00 in0.0 mm
04:44 AM 17.1°F-8.3°C 11.2°F-11.6°C 77% 12.0 mph WNW19.3 kmh WNW 27.0 mph43.5 kmh 30.03 in1016.9 mb 0.00 in0.0 mm 0.00 in0.0 mm 0.00 in0.0 mm
04:43 AM 17.1°F-8.3°C 11.2°F-11.6°C 77% 21.0 mph WNW33.8 kmh WNW 27.0 mph43.5 kmh 30.03 in1016.9 mb 0.00 in0.0 mm 0.00 in0.0 mm 0.00 in0.0 mm
04:42 AM 17.1°F-8.3°C 11.2°F-11.6°C 77% 14.0 mph NW22.5 kmh NW 27.0 mph43.5 kmh 30.03 in1016.9 mb 0.00 in0.0 mm 0.00 in0.0 mm 0.00 in0.0 mm
04:41 AM 17.1°F-8.3°C 11.2°F-11.6°C 77% 19.0 mph NW30.6 kmh NW 27.0 mph43.5 kmh 30.03 in1016.9 mb 0.00 in0.0 mm 0.00 in0.0 mm 0.00 in0.0 mm
04:40 AM 17.2°F-8.2°C 11.2°F-11.6°C 77% 18.0 mph NW29.0 kmh NW 27.0 mph43.5 kmh 30.03 in1016.9 mb 0.00 in0.0 mm 0.00 in0.0 mm 0.00 in0.0 mm
04:39 AM 17.1°F-8.3°C 11.2°F-11.6°C 77% 13.0 mph NW20.9 kmh NW 27.0 mph43.5 kmh 30.03 in1016.9 mb 0.00 in0.0 mm 0.00 in0.0 mm 0.00 in0.0 mm
04:38 AM 17.2°F-8.2°C 11.2°F-11.6°C 77% 24.0 mph NW38.6 kmh NW 27.0 mph43.5 kmh 30.03 in1016.9 mb 0.00 in0.0 mm 0.00 in0.0 mm 0.00 in0.0 mm
04:37 AM 17.2°F-8.2°C 11.2°F-11.6°C 77% 13.0 mph NW20.9 kmh NW 27.0 mph43.5 kmh 30.03 in1016.9 mb 0.00 in0.0 mm 0.00 in0.0 mm 0.00 in0.0 mm
04:36 AM 17.2°F-8.2°C 11.2°F-11.6°C 77% 24.0 mph NW38.6 kmh NW 27.0 mph43.5 kmh 30.03 in1016.9 mb 0.00 in0.0 mm 0.00 in0.0 mm 0.00 in0.0 mm
04:35 AM 17.2°F-8.2°C 11.2°F-11.6°C 77% 19.0 mph NW30.6 kmh NW 27.0 mph43.5 kmh 30.03 in1016.9 mb 0.00 in0.0 mm 0.00 in0.0 mm 0.00 in0.0 mm
04:34 AM 17.2°F-8.2°C 11.2°F-11.6°C 77% 21.0 mph NW33.8 kmh NW 27.0 mph43.5 kmh 30.03 in1016.9 mb 0.00 in0.0 mm 0.00 in0.0 mm 0.00 in0.0 mm
04:33 AM 17.2°F-8.2°C 11.2°F-11.6°C 77% 13.0 mph NW20.9 kmh NW 27.0 mph43.5 kmh 30.03 in1016.9 mb 0.00 in0.0 mm 0.00 in0.0 mm 0.00 in0.0 mm
04:32 AM 17.2°F-8.2°C 11.2°F-11.6°C 77% 20.0 mph NW32.2 kmh NW 27.0 mph43.5 kmh 30.03 in1016.9 mb 0.00 in0.0 mm 0.00 in0.0 mm 0.00 in0.0 mm
04:31 AM 17.2°F-8.2°C 11.2°F-11.6°C 77% 20.0 mph NW32.2 kmh NW 27.0 mph43.5 kmh 30.03 in1016.9 mb 0.00 in0.0 mm 0.00 in0.0 mm 0.00 in0.0 mm
04:30 AM 17.2°F-8.2°C 11.2°F-11.6°C 77% 17.0 mph NW27.4 kmh NW 25.0 mph40.2 kmh 30.03 in1016.9 mb 0.00 in0.0 mm 0.00 in0.0 mm 0.00 in0.0 mm
04:29 AM 17.2°F-8.2°C 11.2°F-11.6°C 77% 16.0 mph NW25.7 kmh NW 25.0 mph40.2 kmh 30.03 in1016.9 mb 0.00 in0.0 mm 0.00 in0.0 mm 0.00 in0.0 mm
04:28 AM 17.2°F-8.2°C 11.2°F-11.6°C 77% 19.0 mph NW30.6 kmh NW 25.0 mph40.2 kmh 30.03 in1016.9 mb 0.00 in0.0 mm 0.00 in0.0 mm 0.00 in0.0 mm
04:27 AM 17.2°F-8.2°C 11.2°F-11.6°C 77% 15.0 mph NW24.1 kmh NW 25.0 mph40.2 kmh 30.03 in1016.9 mb 0.00 in0.0 mm 0.00 in0.0 mm 0.00 in0.0 mm
04:26 AM 17.2°F-8.2°C 11.2°F-11.6°C 77% 20.0 mph NW32.2 kmh NW 25.0 mph40.2 kmh 30.03 in1016.9 mb 0.00 in0.0 mm 0.00 in0.0 mm 0.00 in0.0 mm
04:25 AM 17.3°F-8.2°C 11.3°F-11.5°C 77% 14.0 mph WNW22.5 kmh WNW 25.0 mph40.2 kmh 30.03 in1016.9 mb 0.00 in0.0 mm 0.00 in0.0 mm 0.00 in0.0 mm
04:24 AM 17.3°F-8.2°C 11.3°F-11.5°C 77% 16.0 mph NW25.7 kmh NW 25.0 mph40.2 kmh 30.03 in1016.9 mb 0.00 in0.0 mm 0.00 in0.0 mm 0.00 in0.0 mm
04:23 AM 17.3°F-8.2°C 11.3°F-11.5°C 77% 18.0 mph NW29.0 kmh NW 25.0 mph40.2 kmh 30.03 in1016.9 mb 0.00 in0.0 mm 0.00 in0.0 mm 0.00 in0.0 mm
04:22 AM 17.3°F-8.2°C 11.3°F-11.5°C 77% 18.0 mph NW29.0 kmh NW 25.0 mph40.2 kmh 30.03 in1016.9 mb 0.00 in0.0 mm 0.00 in0.0 mm 0.00 in0.0 mm
04:21 AM 17.3°F-8.2°C 11.3°F-11.5°C 77% 19.0 mph NW30.6 kmh NW 25.0 mph40.2 kmh 30.03 in1016.9 mb 0.00 in0.0 mm 0.00 in0.0 mm 0.00 in0.0 mm
04:20 AM 17.3°F-8.2°C 11.3°F-11.5°C 77% 19.0 mph NW30.6 kmh NW 25.0 mph40.2 kmh 30.03 in1016.9 mb 0.00 in0.0 mm 0.00 in0.0 mm 0.00 in0.0 mm
04:19 AM 17.3°F-8.2°C 11.3°F-11.5°C 77% 16.0 mph NW25.7 kmh NW 25.0 mph40.2 kmh 30.03 in1016.9 mb 0.00 in0.0 mm 0.00 in0.0 mm 0.00 in0.0 mm
04:18 AM 17.3°F-8.2°C 11.3°F-11.5°C 77% 15.0 mph NW24.1 kmh NW 25.0 mph40.2 kmh 30.03 in1016.9 mb 0.00 in0.0 mm 0.00 in0.0 mm 0.00 in0.0 mm
04:17 AM 17.3°F-8.2°C 11.6°F-11.3°C 78% 15.0 mph NW24.1 kmh NW 25.0 mph40.2 kmh 30.03 in1016.9 mb 0.00 in0.0 mm 0.00 in0.0 mm 0.00 in0.0 mm
04:16 AM 17.3°F-8.2°C 11.6°F-11.3°C 78% 19.0 mph NW30.6 kmh NW 25.0 mph40.2 kmh 30.03 in1016.9 mb 0.00 in0.0 mm 0.00 in0.0 mm 0.00 in0.0 mm
04:15 AM 17.3°F-8.2°C 11.6°F-11.3°C 78% 14.0 mph NW22.5 kmh NW 25.0 mph40.2 kmh 30.03 in1016.9 mb 0.00 in0.0 mm 0.00 in0.0 mm 0.00 in0.0 mm
04:14 AM 17.3°F-8.2°C 11.6°F-11.3°C 78% 12.0 mph NW19.3 kmh NW 25.0 mph40.2 kmh 30.03 in1016.9 mb 0.00 in0.0 mm 0.00 in0.0 mm 0.00 in0.0 mm
04:13 AM 17.3°F-8.2°C 11.6°F-11.3°C 78% 15.0 mph NW24.1 kmh NW 25.0 mph40.2 kmh 30.02 in1016.6 mb 0.00 in0.0 mm 0.00 in0.0 mm 0.00 in0.0 mm
04:12 AM 17.3°F-8.2°C 11.6°F-11.3°C 78% 22.0 mph NW35.4 kmh NW 25.0 mph40.2 kmh 30.03 in1016.9 mb 0.00 in0.0 mm 0.00 in0.0 mm 0.00 in0.0 mm
04:11 AM 17.3°F-8.2°C 11.6°F-11.3°C 78% 15.0 mph NW24.1 kmh NW 25.0 mph40.2 kmh 30.03 in1016.9 mb 0.00 in0.0 mm 0.00 in0.0 mm 0.00 in0.0 mm
04:10 AM 17.4°F-8.1°C 11.7°F-11.3°C 78% 14.0 mph NW22.5 kmh NW 25.0 mph40.2 kmh 30.03 in1016.9 mb 0.00 in0.0 mm 0.00 in0.0 mm 0.00 in0.0 mm
04:09 AM 17.4°F-8.1°C 11.7°F-11.3°C 78% 21.0 mph NW33.8 kmh NW 25.0 mph40.2 kmh 30.03 in1016.9 mb 0.00 in0.0 mm 0.00 in0.0 mm 0.00 in0.0 mm
04:08 AM 17.4°F-8.1°C 11.7°F-11.3°C 78% 14.0 mph NW22.5 kmh NW 25.0 mph40.2 kmh 30.03 in1016.9 mb 0.00 in0.0 mm 0.00 in0.0 mm 0.00 in0.0 mm
04:07 AM 17.4°F-8.1°C 11.7°F-11.3°C 78% 16.0 mph NW25.7 kmh NW 25.0 mph40.2 kmh 30.02 in1016.6 mb 0.00 in0.0 mm 0.00 in0.0 mm 0.00 in0.0 mm
04:06 AM 17.4°F-8.1°C 11.7°F-11.3°C 78% 23.0 mph NW37.0 kmh NW 25.0 mph40.2 kmh 30.02 in1016.6 mb 0.00 in0.0 mm 0.00 in0.0 mm 0.00 in0.0 mm
04:05 AM 17.4°F-8.1°C 11.7°F-11.3°C 78% 17.0 mph NW27.4 kmh NW 25.0 mph40.2 kmh 30.02 in1016.6 mb 0.00 in0.0 mm 0.00 in0.0 mm 0.00 in0.0 mm
04:04 AM 17.4°F-8.1°C 11.7°F-11.3°C 78% 18.0 mph NW29.0 kmh NW 23.0 mph37.0 kmh 30.02 in1016.6 mb 0.00 in0.0 mm 0.00 in0.0 mm 0.00 in0.0 mm
04:03 AM 17.4°F-8.1°C 11.7°F-11.3°C 78% 20.0 mph NW32.2 kmh NW 22.0 mph35.4 kmh 30.02 in1016.6 mb 0.00 in0.0 mm 0.00 in0.0 mm 0.00 in0.0 mm
04:02 AM 17.4°F-8.1°C 11.7°F-11.3°C 78% 17.0 mph NW27.4 kmh NW 22.0 mph35.4 kmh 30.02 in1016.6 mb 0.00 in0.0 mm 0.00 in0.0 mm 0.00 in0.0 mm
04:01 AM 17.4°F-8.1°C 11.7°F-11.3°C 78% 16.0 mph NW25.7 kmh NW 17.0 mph27.4 kmh 30.02 in1016.6 mb 0.00 in0.0 mm 0.00 in0.0 mm 0.00 in0.0 mm
04:00 AM 17.4°F-8.1°C 11.7°F-11.3°C 78% 13.0 mph NW20.9 kmh NW 26.0 mph41.8 kmh 30.02 in1016.6 mb 0.00 in0.0 mm 0.00 in0.0 mm 0.00 in0.0 mm
03:59 AM 17.5°F-8.1°C 11.8°F-11.2°C 78% 15.0 mph NW24.1 kmh NW 26.0 mph41.8 kmh 30.02 in1016.6 mb 0.00 in0.0 mm 0.00 in0.0 mm 0.00 in0.0 mm
03:58 AM 17.4°F-8.1°C 11.7°F-11.3°C 78% 13.0 mph WNW20.9 kmh WNW 26.0 mph41.8 kmh 30.02 in1016.6 mb 0.00 in0.0 mm 0.00 in0.0 mm 0.00 in0.0 mm
03:57 AM 17.5°F-8.1°C 11.8°F-11.2°C 78% 13.0 mph NW20.9 kmh NW 26.0 mph41.8 kmh 30.02 in1016.6 mb 0.00 in0.0 mm 0.00 in0.0 mm 0.00 in0.0 mm
03:56 AM 17.5°F-8.1°C 11.8°F-11.2°C 78% 15.0 mph NW24.1 kmh NW 26.0 mph41.8 kmh 30.02 in1016.6 mb 0.00 in0.0 mm 0.00 in0.0 mm 0.00 in0.0 mm
03:55 AM 17.5°F-8.1°C 11.8°F-11.2°C 78% 13.0 mph NW20.9 kmh NW 26.0 mph41.8 kmh 30.02 in1016.6 mb 0.00 in0.0 mm 0.00 in0.0 mm 0.00 in0.0 mm
03:54 AM 17.5°F-8.1°C 11.8°F-11.2°C 78% 17.0 mph NW27.4 kmh NW 26.0 mph41.8 kmh 30.02 in1016.6 mb 0.00 in0.0 mm 0.00 in0.0 mm 0.00 in0.0 mm
03:53 AM 17.5°F-8.1°C 11.8°F-11.2°C 78% 13.0 mph NW20.9 kmh NW 26.0 mph41.8 kmh 30.02 in1016.6 mb 0.00 in0.0 mm 0.00 in0.0 mm 0.00 in0.0 mm
03:52 AM 17.5°F-8.1°C 11.8°F-11.2°C 78% 13.0 mph NW20.9 kmh NW 26.0 mph41.8 kmh 30.02 in1016.6 mb 0.00 in0.0 mm 0.00 in0.0 mm 0.00 in0.0 mm
03:51 AM 17.5°F-8.1°C 11.8°F-11.2°C 78% 20.0 mph NW32.2 kmh NW 26.0 mph41.8 kmh 30.02 in1016.6 mb 0.00 in0.0 mm 0.00 in0.0 mm 0.00 in0.0 mm
03:50 AM 17.5°F-8.1°C 11.8°F-11.2°C 78% 17.0 mph NW27.4 kmh NW 26.0 mph41.8 kmh 30.02 in1016.6 mb 0.00 in0.0 mm 0.00 in0.0 mm 0.00 in0.0 mm
03:49 AM 17.5°F-8.1°C 11.8°F-11.2°C 78% 17.0 mph NW27.4 kmh NW 26.0 mph41.8 kmh 30.02 in1016.6 mb 0.00 in0.0 mm 0.00 in0.0 mm 0.00 in0.0 mm
03:48 AM 17.6°F-8.0°C 11.9°F-11.2°C 78% 13.0 mph NW20.9 kmh NW 26.0 mph41.8 kmh 30.02 in1016.6 mb 0.00 in0.0 mm 0.00 in0.0 mm 0.00 in0.0 mm
03:47 AM 17.6°F-8.0°C 11.9°F-11.2°C 78% 21.0 mph NW33.8 kmh NW 26.0 mph41.8 kmh 30.02 in1016.6 mb 0.00 in0.0 mm 0.00 in0.0 mm 0.00 in0.0 mm
03:46 AM 17.5°F-8.1°C 11.8°F-11.2°C 78% 17.0 mph NW27.4 kmh NW 26.0 mph41.8 kmh 30.02 in1016.6 mb 0.00 in0.0 mm 0.00 in0.0 mm 0.00 in0.0 mm
03:45 AM 17.5°F-8.1°C 11.8°F-11.2°C 78% 16.0 mph NW25.7 kmh NW 26.0 mph41.8 kmh 30.02 in1016.6 mb 0.00 in0.0 mm 0.00 in0.0 mm 0.00 in0.0 mm
03:44 AM 17.6°F-8.0°C 12.2°F-11.0°C 79% 18.0 mph NW29.0 kmh NW 26.0 mph41.8 kmh 30.02 in1016.6 mb 0.00 in0.0 mm 0.00 in0.0 mm 0.00 in0.0 mm
03:43 AM 17.6°F-8.0°C 12.2°F-11.0°C 79% 19.0 mph NW30.6 kmh NW 26.0 mph41.8 kmh 30.02 in1016.6 mb 0.00 in0.0 mm 0.00 in0.0 mm 0.00 in0.0 mm
03:42 AM 17.6°F-8.0°C 12.2°F-11.0°C 79% 10.0 mph NW16.1 kmh NW 26.0 mph41.8 kmh 30.02 in1016.6 mb 0.00 in0.0 mm 0.00 in0.0 mm 0.00 in0.0 mm
03:41 AM 17.6°F-8.0°C 12.2°F-11.0°C 79% 12.0 mph NW19.3 kmh NW 26.0 mph41.8 kmh 30.02 in1016.6 mb 0.00 in0.0 mm 0.00 in0.0 mm 0.00 in0.0 mm
03:40 AM 17.6°F-8.0°C 12.2°F-11.0°C 79% 16.0 mph NW25.7 kmh NW 26.0 mph41.8 kmh 30.02 in1016.6 mb 0.00 in0.0 mm 0.00 in0.0 mm 0.00 in0.0 mm
03:39 AM 17.6°F-8.0°C 12.2°F-11.0°C 79% 18.0 mph NW29.0 kmh NW 26.0 mph41.8 kmh 30.02 in1016.6 mb 0.00 in0.0 mm 0.00 in0.0 mm 0.00 in0.0 mm
03:38 AM 17.6°F-8.0°C 12.2°F-11.0°C 79% 16.0 mph NW25.7 kmh NW 26.0 mph41.8 kmh 30.02 in1016.6 mb 0.00 in0.0 mm 0.00 in0.0 mm 0.00 in0.0 mm
03:37 AM 17.6°F-8.0°C 12.2°F-11.0°C 79% 16.0 mph WNW25.7 kmh WNW 26.0 mph41.8 kmh 30.02 in1016.6 mb 0.00 in0.0 mm 0.00 in0.0 mm 0.00 in0.0 mm
03:36 AM 17.7°F-7.9°C 12.3°F-10.9°C 79% 24.0 mph NW38.6 kmh NW 24.0 mph38.6 kmh 30.02 in1016.6 mb 0.00 in0.0 mm 0.00 in0.0 mm 0.00 in0.0 mm
03:35 AM 17.7°F-7.9°C 12.3°F-10.9°C 79% 11.0 mph NW17.7 kmh NW 24.0 mph38.6 kmh 30.02 in1016.6 mb 0.00 in0.0 mm 0.00 in0.0 mm 0.00 in0.0 mm
03:34 AM 17.7°F-7.9°C 12.3°F-10.9°C 79% 16.0 mph NW25.7 kmh NW 24.0 mph38.6 kmh 30.02 in1016.6 mb 0.00 in0.0 mm 0.00 in0.0 mm 0.00 in0.0 mm
03:33 AM 17.7°F-7.9°C 12.3°F-10.9°C 79% 16.0 mph NW25.7 kmh NW 21.0 mph33.8 kmh 30.02 in1016.6 mb 0.00 in0.0 mm 0.00 in0.0 mm 0.00 in0.0 mm
03:32 AM 17.7°F-7.9°C 12.3°F-10.9°C 79% 12.0 mph NW19.3 kmh NW 21.0 mph33.8 kmh 30.02 in1016.6 mb 0.00 in0.0 mm 0.00 in0.0 mm 0.00 in0.0 mm
03:31 AM 17.7°F-7.9°C 12.3°F-10.9°C 79% 14.0 mph WNW22.5 kmh WNW 19.0 mph30.6 kmh 30.02 in1016.6 mb 0.00 in0.0 mm 0.00 in0.0 mm 0.00 in0.0 mm
03:30 AM 17.7°F-7.9°C 12.3°F-10.9°C 79% 15.0 mph WNW24.1 kmh WNW 27.0 mph43.5 kmh 30.02 in1016.6 mb 0.00 in0.0 mm 0.00 in0.0 mm 0.00 in0.0 mm
03:29 AM 17.7°F-7.9°C 12.3°F-10.9°C 79% 18.0 mph NW29.0 kmh NW 27.0 mph43.5 kmh 30.02 in1016.6 mb 0.00 in0.0 mm 0.00 in0.0 mm 0.00 in0.0 mm
03:28 AM 17.7°F-7.9°C 12.3°F-10.9°C 79% 23.0 mph NW37.0 kmh NW 27.0 mph43.5 kmh 30.02 in1016.6 mb 0.00 in0.0 mm 0.00 in0.0 mm 0.00 in0.0 mm
03:27 AM 17.7°F-7.9°C 12.3°F-10.9°C 79% 21.0 mph NW33.8 kmh NW 27.0 mph43.5 kmh 30.02 in1016.6 mb 0.00 in0.0 mm 0.00 in0.0 mm 0.00 in0.0 mm
03:26 AM 17.7°F-7.9°C 12.3°F-10.9°C 79% 16.0 mph NW25.7 kmh NW 27.0 mph43.5 kmh 30.02 in1016.6 mb 0.00 in0.0 mm 0.00 in0.0 mm 0.00 in0.0 mm
03:25 AM 17.8°F-7.9°C 12.4°F-10.9°C 79% 18.0 mph NW29.0 kmh NW 27.0 mph43.5 kmh 30.02 in1016.6 mb 0.00 in0.0 mm 0.00 in0.0 mm 0.00 in0.0 mm
03:24 AM 17.7°F-7.9°C 12.3°F-10.9°C 79% 17.0 mph NW27.4 kmh NW 27.0 mph43.5 kmh 30.02 in1016.6 mb 0.00 in0.0 mm 0.00 in0.0 mm 0.00 in0.0 mm
03:23 AM 17.7°F-7.9°C 12.3°F-10.9°C 79% 19.0 mph NW30.6 kmh NW 27.0 mph43.5 kmh 30.02 in1016.6 mb 0.00 in0.0 mm 0.00 in0.0 mm 0.00 in0.0 mm
03:22 AM 17.8°F-7.9°C 12.4°F-10.9°C 79% 16.0 mph NW25.7 kmh NW 27.0 mph43.5 kmh 30.02 in1016.6 mb 0.00 in0.0 mm 0.00 in0.0 mm 0.00 in0.0 mm
03:21 AM 17.8°F-7.9°C 12.4°F-10.9°C 79% 17.0 mph NW27.4 kmh NW 27.0 mph43.5 kmh 30.02 in1016.6 mb 0.00 in0.0 mm 0.00 in0.0 mm 0.00 in0.0 mm
03:20 AM 17.8°F-7.9°C 12.4°F-10.9°C 79% 18.0 mph NW29.0 kmh NW 27.0 mph43.5 kmh 30.02 in1016.6 mb 0.00 in0.0 mm 0.00 in0.0 mm 0.00 in0.0 mm
03:19 AM 17.8°F-7.9°C 12.4°F-10.9°C 79% 14.0 mph NW22.5 kmh NW 27.0 mph43.5 kmh 30.02 in1016.6 mb 0.00 in0.0 mm 0.00 in0.0 mm 0.00 in0.0 mm
03:18 AM 17.9°F-7.8°C 12.5°F-10.8°C 79% 15.0 mph NW24.1 kmh NW 27.0 mph43.5 kmh 30.02 in1016.6 mb 0.00 in0.0 mm 0.00 in0.0 mm 0.00 in0.0 mm
03:17 AM 17.9°F-7.8°C 12.5°F-10.8°C 79% 13.0 mph NW20.9 kmh NW 27.0 mph43.5 kmh 30.02 in1016.6 mb 0.00 in0.0 mm 0.00 in0.0 mm 0.00 in0.0 mm
03:16 AM 17.9°F-7.8°C 12.5°F-10.8°C 79% 15.0 mph NW24.1 kmh NW 27.0 mph43.5 kmh 30.02 in1016.6 mb 0.00 in0.0 mm 0.00 in0.0 mm 0.00 in0.0 mm
03:15 AM 17.9°F-7.8°C 12.5°F-10.8°C 79% 21.0 mph NW33.8 kmh NW 24.0 mph38.6 kmh 30.02 in1016.6 mb 0.00 in0.0 mm 0.00 in0.0 mm 0.00 in0.0 mm
03:14 AM 17.9°F-7.8°C 12.5°F-10.8°C 79% 20.0 mph NW32.2 kmh NW 22.0 mph35.4 kmh 30.02 in1016.6 mb 0.00 in0.0 mm 0.00 in0.0 mm 0.00 in0.0 mm
03:13 AM 17.9°F-7.8°C 12.5°F-10.8°C 79% 19.0 mph NW30.6 kmh NW 22.0 mph35.4 kmh 30.02 in1016.6 mb 0.00 in0.0 mm 0.00 in0.0 mm 0.00 in0.0 mm
03:12 AM 17.9°F-7.8°C 12.5°F-10.8°C 79% 19.0 mph NW30.6 kmh NW 22.0 mph35.4 kmh 30.02 in1016.6 mb 0.00 in0.0 mm 0.00 in0.0 mm 0.00 in0.0 mm
03:11 AM 17.9°F-7.8°C 12.5°F-10.8°C 79% 22.0 mph NW35.4 kmh NW 22.0 mph35.4 kmh 30.02 in1016.6 mb 0.00 in0.0 mm 0.00 in0.0 mm 0.00 in0.0 mm
03:10 AM 17.9°F-7.8°C 12.5°F-10.8°C 79% 14.0 mph NW22.5 kmh NW 22.0 mph35.4 kmh 30.02 in1016.6 mb 0.00 in0.0 mm 0.00 in0.0 mm 0.00 in0.0 mm
03:09 AM 17.9°F-7.8°C 12.5°F-10.8°C 79% 11.0 mph NW17.7 kmh NW 22.0 mph35.4 kmh 30.02 in1016.6 mb 0.00 in0.0 mm 0.00 in0.0 mm 0.00 in0.0 mm
03:08 AM 17.9°F-7.8°C 12.5°F-10.8°C 79% 17.0 mph NW27.4 kmh NW 22.0 mph35.4 kmh 30.02 in1016.6 mb 0.00 in0.0 mm 0.00 in0.0 mm 0.00 in0.0 mm
03:07 AM 18.0°F-7.8°C 12.6°F-10.8°C 79% 17.0 mph NW27.4 kmh NW 21.0 mph33.8 kmh 30.02 in1016.6 mb 0.00 in0.0 mm 0.00 in0.0 mm 0.00 in0.0 mm
03:06 AM 18.0°F-7.8°C 12.6°F-10.8°C 79% 16.0 mph NW25.7 kmh NW 21.0 mph33.8 kmh 30.02 in1016.6 mb 0.00 in0.0 mm 0.00 in0.0 mm 0.00 in0.0 mm
03:05 AM 18.0°F-7.8°C 12.9°F-10.6°C 80% 16.0 mph NW25.7 kmh NW 21.0 mph33.8 kmh 30.02 in1016.6 mb 0.00 in0.0 mm 0.00 in0.0 mm 0.00 in0.0 mm
03:04 AM 18.0°F-7.8°C 12.9°F-10.6°C 80% 12.0 mph NW19.3 kmh NW 21.0 mph33.8 kmh 30.02 in1016.6 mb 0.00 in0.0 mm 0.00 in0.0 mm 0.00 in0.0 mm
03:03 AM 18.0°F-7.8°C 12.9°F-10.6°C 80% 17.0 mph NW27.4 kmh NW 21.0 mph33.8 kmh 30.02 in1016.6 mb 0.00 in0.0 mm 0.00 in0.0 mm 0.00 in0.0 mm
03:02 AM 18.0°F-7.8°C 12.9°F-10.6°C 80% 16.0 mph NW25.7 kmh NW 21.0 mph33.8 kmh 30.02 in1016.6 mb 0.00 in0.0 mm 0.00 in0.0 mm 0.00 in0.0 mm
03:01 AM 18.1°F-7.7°C 13.0°F-10.6°C 80% 11.0 mph NW17.7 kmh NW 21.0 mph33.8 kmh 30.02 in1016.6 mb 0.00 in0.0 mm 0.00 in0.0 mm 0.00 in0.0 mm
03:00 AM 18.1°F-7.7°C 13.0°F-10.6°C 80% 17.0 mph NW27.4 kmh NW 24.0 mph38.6 kmh 30.02 in1016.6 mb 0.00 in0.0 mm 0.00 in0.0 mm 0.00 in0.0 mm
02:59 AM 18.1°F-7.7°C 13.0°F-10.6°C 80% 14.0 mph NW22.5 kmh NW 24.0 mph38.6 kmh 30.02 in1016.6 mb 0.00 in0.0 mm 0.00 in0.0 mm 0.00 in0.0 mm
02:58 AM 18.1°F-7.7°C 13.0°F-10.6°C 80% 20.0 mph NW32.2 kmh NW 24.0 mph38.6 kmh 30.02 in1016.6 mb 0.00 in0.0 mm 0.00 in0.0 mm 0.00 in0.0 mm
02:57 AM 18.1°F-7.7°C 13.0°F-10.6°C 80% 17.0 mph NW27.4 kmh NW 24.0 mph38.6 kmh 30.02 in1016.6 mb 0.00 in0.0 mm 0.00 in0.0 mm 0.00 in0.0 mm
02:56 AM 18.1°F-7.7°C 13.0°F-10.6°C 80% 11.0 mph NW17.7 kmh NW 24.0 mph38.6 kmh 30.02 in1016.6 mb 0.00 in0.0 mm 0.00 in0.0 mm 0.00 in0.0 mm
02:55 AM 18.1°F-7.7°C 13.0°F-10.6°C 80% 19.0 mph NW30.6 kmh NW 24.0 mph38.6 kmh 30.02 in1016.6 mb 0.00 in0.0 mm 0.00 in0.0 mm 0.00 in0.0 mm
02:54 AM 18.1°F-7.7°C 13.0°F-10.6°C 80% 11.0 mph NW17.7 kmh NW 24.0 mph38.6 kmh 30.02 in1016.6 mb 0.00 in0.0 mm 0.00 in0.0 mm 0.00 in0.0 mm
02:53 AM 18.1°F-7.7°C 13.0°F-10.6°C 80% 13.0 mph NW20.9 kmh NW 24.0 mph38.6 kmh 30.02 in1016.6 mb 0.00 in0.0 mm 0.00 in0.0 mm 0.00 in0.0 mm
02:52 AM 18.1°F-7.7°C 13.0°F-10.6°C 80% 11.0 mph NW17.7 kmh NW 24.0 mph38.6 kmh 30.02 in1016.6 mb 0.00 in0.0 mm 0.00 in0.0 mm 0.00 in0.0 mm
02:51 AM 18.2°F-7.7°C 13.1°F-10.5°C 80% 18.0 mph NW29.0 kmh NW 24.0 mph38.6 kmh 30.02 in1016.6 mb 0.00 in0.0 mm 0.00 in0.0 mm 0.00 in0.0 mm
02:50 AM 18.1°F-7.7°C 13.0°F-10.6°C 80% 16.0 mph NW25.7 kmh NW 24.0 mph38.6 kmh 30.02 in1016.6 mb 0.00 in0.0 mm 0.00 in0.0 mm 0.00 in0.0 mm
02:49 AM 18.2°F-7.7°C 13.1°F-10.5°C 80% 20.0 mph NW32.2 kmh NW 24.0 mph38.6 kmh 30.02 in1016.6 mb 0.00 in0.0 mm 0.00 in0.0 mm 0.00 in0.0 mm
02:48 AM 18.2°F-7.7°C 13.1°F-10.5°C 80% 13.0 mph NW20.9 kmh NW 24.0 mph38.6 kmh 30.02 in1016.6 mb 0.00 in0.0 mm 0.00 in0.0 mm 0.00 in0.0 mm
02:47 AM 18.2°F-7.7°C 13.1°F-10.5°C 80% 17.0 mph NW27.4 kmh NW 24.0 mph38.6 kmh 30.02 in1016.6 mb 0.00 in0.0 mm 0.00 in0.0 mm 0.00 in0.0 mm
02:46 AM 18.2°F-7.7°C 13.1°F-10.5°C 80% 15.0 mph NW24.1 kmh NW 24.0 mph38.6 kmh 30.02 in1016.6 mb 0.00 in0.0 mm 0.00 in0.0 mm 0.00 in0.0 mm
02:45 AM 18.2°F-7.7°C 13.1°F-10.5°C 80% 14.0 mph NW22.5 kmh NW 24.0 mph38.6 kmh 30.02 in1016.6 mb 0.00 in0.0 mm 0.00 in0.0 mm 0.00 in0.0 mm
02:44 AM 18.2°F-7.7°C 13.1°F-10.5°C 80% 13.0 mph NW20.9 kmh NW 24.0 mph38.6 kmh 30.02 in1016.6 mb 0.00 in0.0 mm 0.00 in0.0 mm 0.00 in0.0 mm
02:43 AM 18.2°F-7.7°C 13.1°F-10.5°C 80% 15.0 mph NW24.1 kmh NW 24.0 mph38.6 kmh 30.02 in1016.6 mb 0.00 in0.0 mm 0.00 in0.0 mm 0.00 in0.0 mm
02:42 AM 18.3°F-7.6°C 13.2°F-10.4°C 80% 16.0 mph NW25.7 kmh NW 24.0 mph38.6 kmh 30.02 in1016.6 mb 0.00 in0.0 mm 0.00 in0.0 mm 0.00 in0.0 mm
02:41 AM 18.2°F-7.7°C 13.1°F-10.5°C 80% 16.0 mph NW25.7 kmh NW 24.0 mph38.6 kmh 30.02 in1016.6 mb 0.00 in0.0 mm 0.00 in0.0 mm 0.00 in0.0 mm
02:40 AM 18.3°F-7.6°C 13.2°F-10.4°C 80% 16.0 mph NW25.7 kmh NW 24.0 mph38.6 kmh 30.02 in1016.6 mb 0.00 in0.0 mm 0.00 in0.0 mm 0.00 in0.0 mm
02:39 AM 18.3°F-7.6°C 13.2°F-10.4°C 80% 13.0 mph NW20.9 kmh NW 24.0 mph38.6 kmh 30.02 in1016.6 mb 0.00 in0.0 mm 0.00 in0.0 mm 0.00 in0.0 mm
02:38 AM 18.3°F-7.6°C 13.2°F-10.4°C 80% 20.0 mph NW32.2 kmh NW 24.0 mph38.6 kmh 30.02 in1016.6 mb 0.00 in0.0 mm 0.00 in0.0 mm 0.00 in0.0 mm
02:37 AM 18.3°F-7.6°C 13.2°F-10.4°C 80% 16.0 mph NW25.7 kmh NW 24.0 mph38.6 kmh 30.02 in1016.6 mb 0.00 in0.0 mm 0.00 in0.0 mm 0.00 in0.0 mm
02:36 AM 18.3°F-7.6°C 13.5°F-10.3°C 81% 15.0 mph NW24.1 kmh NW 24.0 mph38.6 kmh 30.02 in1016.6 mb 0.00 in0.0 mm 0.00 in0.0 mm 0.00 in0.0 mm
02:35 AM 18.3°F-7.6°C 13.5°F-10.3°C 81% 9.0 mph NW14.5 kmh NW 24.0 mph38.6 kmh 30.02 in1016.6 mb 0.00 in0.0 mm 0.00 in0.0 mm 0.00 in0.0 mm
02:34 AM 18.4°F-7.6°C 13.6°F-10.2°C 81% 15.0 mph NW24.1 kmh NW 24.0 mph38.6 kmh 30.02 in1016.6 mb 0.00 in0.0 mm 0.00 in0.0 mm 0.00 in0.0 mm
02:33 AM 18.4°F-7.6°C 13.6°F-10.2°C 81% 19.0 mph NW30.6 kmh NW 24.0 mph38.6 kmh 30.02 in1016.6 mb 0.00 in0.0 mm 0.00 in0.0 mm 0.00 in0.0 mm
02:32 AM 18.4°F-7.6°C 13.6°F-10.2°C 81% 12.0 mph NW19.3 kmh NW 23.0 mph37.0 kmh 30.02 in1016.6 mb 0.00 in0.0 mm 0.00 in0.0 mm 0.00 in0.0 mm
02:31 AM 18.4°F-7.6°C 13.6°F-10.2°C 81% 16.0 mph NW25.7 kmh NW 23.0 mph37.0 kmh 30.02 in1016.6 mb 0.00 in0.0 mm 0.00 in0.0 mm 0.00 in0.0 mm
02:30 AM 18.3°F-7.6°C 13.5°F-10.3°C 81% 22.0 mph NW35.4 kmh NW 28.0 mph45.1 kmh 30.01 in1016.3 mb 0.00 in0.0 mm 0.00 in0.0 mm 0.00 in0.0 mm
02:29 AM 18.4°F-7.6°C 13.6°F-10.2°C 81% 17.0 mph NW27.4 kmh NW 28.0 mph45.1 kmh 30.01 in1016.3 mb 0.00 in0.0 mm 0.00 in0.0 mm 0.00 in0.0 mm
02:28 AM 18.4°F-7.6°C 13.6°F-10.2°C 81% 18.0 mph NW29.0 kmh NW 28.0 mph45.1 kmh 30.02 in1016.6 mb 0.00 in0.0 mm 0.00 in0.0 mm 0.00 in0.0 mm
02:27 AM 18.4°F-7.6°C 13.6°F-10.2°C 81% 15.0 mph NW24.1 kmh NW 28.0 mph45.1 kmh 30.01 in1016.3 mb 0.00 in0.0 mm 0.00 in0.0 mm 0.00 in0.0 mm
02:26 AM 18.4°F-7.6°C 13.6°F-10.2°C 81% 15.0 mph NW24.1 kmh NW 28.0 mph45.1 kmh 30.02 in1016.6 mb 0.00 in0.0 mm 0.00 in0.0 mm 0.00 in0.0 mm
02:25 AM 18.5°F-7.5°C 13.7°F-10.2°C 81% 17.0 mph NW27.4 kmh NW 28.0 mph45.1 kmh 30.01 in1016.3 mb 0.00 in0.0 mm 0.00 in0.0 mm 0.00 in0.0 mm
02:24 AM 18.5°F-7.5°C 13.7°F-10.2°C 81% 14.0 mph NW22.5 kmh NW 28.0 mph45.1 kmh 30.01 in1016.3 mb 0.00 in0.0 mm 0.00 in0.0 mm 0.00 in0.0 mm
02:23 AM 18.5°F-7.5°C 13.7°F-10.2°C 81% 14.0 mph NW22.5 kmh NW 28.0 mph45.1 kmh 30.01 in1016.3 mb 0.00 in0.0 mm 0.00 in0.0 mm 0.00 in0.0 mm
02:22 AM 18.5°F-7.5°C 13.7°F-10.2°C 81% 15.0 mph NW24.1 kmh NW 28.0 mph45.1 kmh 30.01 in1016.3 mb 0.00 in0.0 mm 0.00 in0.0 mm 0.00 in0.0 mm
02:21 AM 18.5°F-7.5°C 13.7°F-10.2°C 81% 16.0 mph NW25.7 kmh NW 28.0 mph45.1 kmh 30.01 in1016.3 mb 0.00 in0.0 mm 0.00 in0.0 mm 0.00 in0.0 mm
02:20 AM 18.5°F-7.5°C 13.7°F-10.2°C 81% 19.0 mph NW30.6 kmh NW 28.0 mph45.1 kmh 30.01 in1016.3 mb 0.00 in0.0 mm 0.00 in0.0 mm 0.00 in0.0 mm
02:19 AM 18.5°F-7.5°C 13.7°F-10.2°C 81% 20.0 mph NW32.2 kmh NW 28.0 mph45.1 kmh 30.01 in1016.3 mb 0.00 in0.0 mm 0.00 in0.0 mm 0.00 in0.0 mm
02:18 AM 18.5°F-7.5°C 13.7°F-10.2°C 81% 16.0 mph NW25.7 kmh NW 28.0 mph45.1 kmh 30.01 in1016.3 mb 0.00 in0.0 mm 0.00 in0.0 mm 0.00 in0.0 mm
02:17 AM 18.6°F-7.4°C 13.8°F-10.1°C 81% 17.0 mph NW27.4 kmh NW 28.0 mph45.1 kmh 30.01 in1016.3 mb 0.00 in0.0 mm 0.00 in0.0 mm 0.00 in0.0 mm
02:16 AM 18.6°F-7.4°C 13.8°F-10.1°C 81% 15.0 mph NW24.1 kmh NW 28.0 mph45.1 kmh 30.01 in1016.3 mb 0.00 in0.0 mm 0.00 in0.0 mm 0.00 in0.0 mm
02:15 AM 18.6°F-7.4°C 13.8°F-10.1°C 81% 14.0 mph NW22.5 kmh NW 28.0 mph45.1 kmh 30.01 in1016.3 mb 0.00 in0.0 mm 0.00 in0.0 mm 0.00 in0.0 mm
02:14 AM 18.6°F-7.4°C 13.8°F-10.1°C 81% 16.0 mph NW25.7 kmh NW 28.0 mph45.1 kmh 30.01 in1016.3 mb 0.00 in0.0 mm 0.00 in0.0 mm 0.00 in0.0 mm
02:13 AM 18.7°F-7.4°C 13.6°F-10.2°C 80% 17.0 mph NW27.4 kmh NW 28.0 mph45.1 kmh 30.01 in1016.3 mb 0.00 in0.0 mm 0.00 in0.0 mm 0.00 in0.0 mm
02:12 AM 18.7°F-7.4°C 13.6°F-10.2°C 80% 16.0 mph NW25.7 kmh NW 28.0 mph45.1 kmh 30.01 in1016.3 mb 0.00 in0.0 mm 0.00 in0.0 mm 0.00 in0.0 mm
02:11 AM 18.7°F-7.4°C 13.6°F-10.2°C 80% 23.0 mph NW37.0 kmh NW 28.0 mph45.1 kmh 30.01 in1016.3 mb 0.00 in0.0 mm 0.00 in0.0 mm 0.00 in0.0 mm
02:10 AM 18.7°F-7.4°C 13.6°F-10.2°C 80% 15.0 mph NW24.1 kmh NW 28.0 mph45.1 kmh 30.01 in1016.3 mb 0.00 in0.0 mm 0.00 in0.0 mm 0.00 in0.0 mm
02:09 AM 18.7°F-7.4°C 13.6°F-10.2°C 80% 21.0 mph NW33.8 kmh NW 28.0 mph45.1 kmh 30.01 in1016.3 mb 0.00 in0.0 mm 0.00 in0.0 mm 0.00 in0.0 mm
02:08 AM 18.8°F-7.3°C 13.7°F-10.2°C 80% 21.0 mph NW33.8 kmh NW 28.0 mph45.1 kmh 30.01 in1016.3 mb 0.00 in0.0 mm 0.00 in0.0 mm 0.00 in0.0 mm
02:07 AM 18.8°F-7.3°C 13.7°F-10.2°C 80% 19.0 mph NW30.6 kmh NW 28.0 mph45.1 kmh 30.01 in1016.3 mb 0.00 in0.0 mm 0.00 in0.0 mm 0.00 in0.0 mm
02:06 AM 18.8°F-7.3°C 13.7°F-10.2°C 80% 14.0 mph NW22.5 kmh NW 28.0 mph45.1 kmh 30.01 in1016.3 mb 0.00 in0.0 mm 0.00 in0.0 mm 0.00 in0.0 mm
02:05 AM 18.8°F-7.3°C 13.7°F-10.2°C 80% 21.0 mph NW33.8 kmh NW 28.0 mph45.1 kmh 30.01 in1016.3 mb 0.00 in0.0 mm 0.00 in0.0 mm 0.00 in0.0 mm
02:04 AM 18.8°F-7.3°C 13.7°F-10.2°C 80% 22.0 mph NW35.4 kmh NW 28.0 mph45.1 kmh 30.01 in1016.3 mb 0.00 in0.0 mm 0.00 in0.0 mm 0.00 in0.0 mm
02:03 AM 18.8°F-7.3°C 13.7°F-10.2°C 80% 19.0 mph NW30.6 kmh NW 28.0 mph45.1 kmh 30.01 in1016.3 mb 0.00 in0.0 mm 0.00 in0.0 mm 0.00 in0.0 mm
02:02 AM 18.8°F-7.3°C 13.7°F-10.2°C 80% 17.0 mph NW27.4 kmh NW 28.0 mph45.1 kmh 30.01 in1016.3 mb 0.00 in0.0 mm 0.00 in0.0 mm 0.00 in0.0 mm
02:01 AM 18.8°F-7.3°C 13.7°F-10.2°C 80% 18.0 mph NW29.0 kmh NW 28.0 mph45.1 kmh 30.01 in1016.3 mb 0.00 in0.0 mm 0.00 in0.0 mm 0.00 in0.0 mm
02:00 AM 18.8°F-7.3°C 13.7°F-10.2°C 80% 21.0 mph NW33.8 kmh NW 27.0 mph43.5 kmh 30.01 in1016.3 mb 0.00 in0.0 mm 0.00 in0.0 mm 0.00 in0.0 mm
01:59 AM 18.9°F-7.3°C 13.8°F-10.1°C 80% 20.0 mph NW32.2 kmh NW 27.0 mph43.5 kmh 30.01 in1016.3 mb 0.00 in0.0 mm 0.00 in0.0 mm 0.00 in0.0 mm
01:58 AM 18.9°F-7.3°C 13.8°F-10.1°C 80% 17.0 mph NW27.4 kmh NW 27.0 mph43.5 kmh 30.01 in1016.3 mb 0.00 in0.0 mm 0.00 in0.0 mm 0.00 in0.0 mm
01:57 AM 18.9°F-7.3°C 13.8°F-10.1°C 80% 19.0 mph NW30.6 kmh NW 27.0 mph43.5 kmh 30.01 in1016.3 mb 0.00 in0.0 mm 0.00 in0.0 mm 0.00 in0.0 mm
01:56 AM 18.9°F-7.3°C 13.8°F-10.1°C 80% 18.0 mph NW29.0 kmh NW 27.0 mph43.5 kmh 30.01 in1016.3 mb 0.00 in0.0 mm 0.00 in0.0 mm 0.00 in0.0 mm
01:55 AM 18.9°F-7.3°C 13.8°F-10.1°C 80% 16.0 mph NW25.7 kmh NW 27.0 mph43.5 kmh 30.01 in1016.3 mb 0.00 in0.0 mm 0.00 in0.0 mm 0.00 in0.0 mm
01:54 AM 18.9°F-7.3°C 13.8°F-10.1°C 80% 22.0 mph NW35.4 kmh NW 27.0 mph43.5 kmh 30.01 in1016.3 mb 0.00 in0.0 mm 0.00 in0.0 mm 0.00 in0.0 mm
01:53 AM 18.9°F-7.3°C 14.0°F-10.0°C 81% 19.0 mph NW30.6 kmh NW 27.0 mph43.5 kmh 30.01 in1016.3 mb 0.00 in0.0 mm 0.00 in0.0 mm 0.00 in0.0 mm
01:52 AM 18.9°F-7.3°C 14.0°F-10.0°C 81% 22.0 mph NW35.4 kmh NW 27.0 mph43.5 kmh 30.01 in1016.3 mb 0.00 in0.0 mm 0.00 in0.0 mm 0.00 in0.0 mm
01:51 AM 18.9°F-7.3°C 14.0°F-10.0°C 81% 23.0 mph NW37.0 kmh NW 27.0 mph43.5 kmh 30.01 in1016.3 mb 0.00 in0.0 mm 0.00 in0.0 mm 0.00 in0.0 mm
01:50 AM 18.9°F-7.3°C 14.0°F-10.0°C 81% 17.0 mph NW27.4 kmh NW 26.0 mph41.8 kmh 30.01 in1016.3 mb 0.00 in0.0 mm 0.00 in0.0 mm 0.00 in0.0 mm
01:49 AM 18.9°F-7.3°C 14.0°F-10.0°C 81% 17.0 mph NW27.4 kmh NW 26.0 mph41.8 kmh 30.01 in1016.3 mb 0.00 in0.0 mm 0.00 in0.0 mm 0.00 in0.0 mm
01:48 AM 18.9°F-7.3°C 14.0°F-10.0°C 81% 19.0 mph NW30.6 kmh NW 26.0 mph41.8 kmh 30.01 in1016.3 mb 0.00 in0.0 mm 0.00 in0.0 mm 0.00 in0.0 mm
01:47 AM 18.9°F-7.3°C 14.0°F-10.0°C 81% 14.0 mph NW22.5 kmh NW 26.0 mph41.8 kmh 30.01 in1016.3 mb 0.00 in0.0 mm 0.00 in0.0 mm 0.00 in0.0 mm
01:46 AM 19.0°F-7.2°C 14.1°F-9.9°C 81% 17.0 mph NW27.4 kmh NW 26.0 mph41.8 kmh 30.01 in1016.3 mb 0.00 in0.0 mm 0.00 in0.0 mm 0.00 in0.0 mm
01:45 AM 19.0°F-7.2°C 14.1°F-9.9°C 81% 13.0 mph NW20.9 kmh NW 26.0 mph41.8 kmh 30.01 in1016.3 mb 0.00 in0.0 mm 0.00 in0.0 mm 0.00 in0.0 mm
01:44 AM 19.0°F-7.2°C 14.1°F-9.9°C 81% 19.0 mph NW30.6 kmh NW 26.0 mph41.8 kmh 30.01 in1016.3 mb 0.00 in0.0 mm 0.00 in0.0 mm 0.00 in0.0 mm
01:43 AM 19.0°F-7.2°C 14.1°F-9.9°C 81% 16.0 mph NW25.7 kmh NW 26.0 mph41.8 kmh 30.01 in1016.3 mb 0.00 in0.0 mm 0.00 in0.0 mm 0.00 in0.0 mm
01:42 AM 19.0°F-7.2°C 14.1°F-9.9°C 81% 21.0 mph NW33.8 kmh NW 26.0 mph41.8 kmh 30.01 in1016.3 mb 0.00 in0.0 mm 0.00 in0.0 mm 0.00 in0.0 mm
01:41 AM 19.0°F-7.2°C 14.1°F-9.9°C 81% 19.0 mph NW30.6 kmh NW 26.0 mph41.8 kmh 30.01 in1016.3 mb 0.00 in0.0 mm 0.00 in0.0 mm 0.00 in0.0 mm
01:40 AM 19.0°F-7.2°C 14.1°F-9.9°C 81% 19.0 mph NW30.6 kmh NW 26.0 mph41.8 kmh 30.01 in1016.3 mb 0.00 in0.0 mm 0.00 in0.0 mm 0.00 in0.0 mm
01:39 AM 19.1°F-7.2°C 14.2°F-9.9°C 81% 19.0 mph NW30.6 kmh NW 25.0 mph40.2 kmh 30.01 in1016.3 mb 0.00 in0.0 mm 0.00 in0.0 mm 0.00 in0.0 mm
01:38 AM 19.1°F-7.2°C 14.2°F-9.9°C 81% 13.0 mph NW20.9 kmh NW 25.0 mph40.2 kmh 30.01 in1016.3 mb 0.00 in0.0 mm 0.00 in0.0 mm 0.00 in0.0 mm
01:37 AM 19.1°F-7.2°C 14.2°F-9.9°C 81% 19.0 mph NW30.6 kmh NW 25.0 mph40.2 kmh 30.01 in1016.3 mb 0.00 in0.0 mm 0.00 in0.0 mm 0.00 in0.0 mm
01:36 AM 19.1°F-7.2°C 14.2°F-9.9°C 81% 15.0 mph NW24.1 kmh NW 25.0 mph40.2 kmh 30.01 in1016.3 mb 0.00 in0.0 mm 0.00 in0.0 mm 0.00 in0.0 mm
01:35 AM 19.1°F-7.2°C 14.2°F-9.9°C 81% 19.0 mph NW30.6 kmh NW 25.0 mph40.2 kmh 30.01 in1016.3 mb 0.00 in0.0 mm 0.00 in0.0 mm 0.00 in0.0 mm
01:34 AM 19.1°F-7.2°C 14.2°F-9.9°C 81% 23.0 mph NW37.0 kmh NW 25.0 mph40.2 kmh 30.01 in1016.3 mb 0.00 in0.0 mm 0.00 in0.0 mm 0.00 in0.0 mm
01:33 AM 19.1°F-7.2°C 14.2°F-9.9°C 81% 19.0 mph NW30.6 kmh NW 25.0 mph40.2 kmh 30.01 in1016.3 mb 0.00 in0.0 mm 0.00 in0.0 mm 0.00 in0.0 mm
01:32 AM 19.2°F-7.1°C 14.3°F-9.8°C 81% 17.0 mph NW27.4 kmh NW 25.0 mph40.2 kmh 30.01 in1016.3 mb 0.00 in0.0 mm 0.00 in0.0 mm 0.00 in0.0 mm
01:31 AM 19.2°F-7.1°C 14.1°F-9.9°C 80% 18.0 mph NW29.0 kmh NW 19.0 mph30.6 kmh 30.01 in1016.3 mb 0.00 in0.0 mm 0.00 in0.0 mm 0.00 in0.0 mm
01:30 AM 19.2°F-7.1°C 14.1°F-9.9°C 80% 20.0 mph NW32.2 kmh NW 29.0 mph46.7 kmh 30.01 in1016.3 mb 0.00 in0.0 mm 0.00 in0.0 mm 0.00 in0.0 mm
01:29 AM 19.3°F-7.1°C 14.2°F-9.9°C 80% 18.0 mph NW29.0 kmh NW 29.0 mph46.7 kmh 30.01 in1016.3 mb 0.00 in0.0 mm 0.00 in0.0 mm 0.00 in0.0 mm
01:28 AM 19.3°F-7.1°C 14.2°F-9.9°C 80% 22.0 mph NW35.4 kmh NW 29.0 mph46.7 kmh 30.01 in1016.3 mb 0.00 in0.0 mm 0.00 in0.0 mm 0.00 in0.0 mm
01:27 AM 19.3°F-7.1°C 14.2°F-9.9°C 80% 21.0 mph NW33.8 kmh NW 29.0 mph46.7 kmh 30.01 in1016.3 mb 0.00 in0.0 mm 0.00 in0.0 mm 0.00 in0.0 mm
01:26 AM 19.3°F-7.1°C 14.2°F-9.9°C 80% 21.0 mph NW33.8 kmh NW 29.0 mph46.7 kmh 30.01 in1016.3 mb 0.00 in0.0 mm 0.00 in0.0 mm 0.00 in0.0 mm
01:25 AM 19.3°F-7.1°C 14.2°F-9.9°C 80% 21.0 mph NNW33.8 kmh NNW 29.0 mph46.7 kmh 30.01 in1016.3 mb 0.00 in0.0 mm 0.00 in0.0 mm 0.00 in0.0 mm
01:24 AM 19.3°F-7.1°C 14.2°F-9.9°C 80% 21.0 mph NW33.8 kmh NW 29.0 mph46.7 kmh 30.01 in1016.3 mb 0.00 in0.0 mm 0.00 in0.0 mm 0.00 in0.0 mm
01:23 AM 19.3°F-7.1°C 14.2°F-9.9°C 80% 17.0 mph NW27.4 kmh NW 29.0 mph46.7 kmh 30.01 in1016.3 mb 0.00 in0.0 mm 0.00 in0.0 mm 0.00 in0.0 mm
01:22 AM 19.3°F-7.1°C 14.4°F-9.8°C 81% 24.0 mph NW38.6 kmh NW 29.0 mph46.7 kmh 30.01 in1016.3 mb 0.00 in0.0 mm 0.00 in0.0 mm 0.00 in0.0 mm
01:21 AM 19.4°F-7.0°C 14.5°F-9.7°C 81% 21.0 mph NW33.8 kmh NW 29.0 mph46.7 kmh 30.01 in1016.3 mb 0.00 in0.0 mm 0.00 in0.0 mm 0.00 in0.0 mm
01:20 AM 19.3°F-7.1°C 14.4°F-9.8°C 81% 21.0 mph NW33.8 kmh NW 29.0 mph46.7 kmh 30.01 in1016.3 mb 0.00 in0.0 mm 0.00 in0.0 mm 0.00 in0.0 mm
01:19 AM 19.3°F-7.1°C 14.4°F-9.8°C 81% 26.0 mph NW41.8 kmh NW 29.0 mph46.7 kmh 30.01 in1016.3 mb 0.00 in0.0 mm 0.00 in0.0 mm 0.00 in0.0 mm
01:18 AM 19.3°F-7.1°C 14.4°F-9.8°C 81% 20.0 mph NW32.2 kmh NW 29.0 mph46.7 kmh 30.00 in1015.9 mb 0.00 in0.0 mm 0.00 in0.0 mm 0.00 in0.0 mm
01:17 AM 19.3°F-7.1°C 14.4°F-9.8°C 81% 22.0 mph NW35.4 kmh NW 29.0 mph46.7 kmh 30.01 in1016.3 mb 0.00 in0.0 mm 0.00 in0.0 mm 0.00 in0.0 mm
01:16 AM 19.3°F-7.1°C 14.4°F-9.8°C 81% 19.0 mph NW30.6 kmh NW 26.0 mph41.8 kmh 30.01 in1016.3 mb 0.00 in0.0 mm 0.00 in0.0 mm 0.00 in0.0 mm
01:15 AM 19.3°F-7.1°C 14.4°F-9.8°C 81% 16.0 mph NW25.7 kmh NW 26.0 mph41.8 kmh 30.01 in1016.3 mb 0.00 in0.0 mm 0.00 in0.0 mm 0.00 in0.0 mm
01:14 AM 19.4°F-7.0°C 14.5°F-9.7°C 81% 20.0 mph NW32.2 kmh NW 26.0 mph41.8 kmh 30.01 in1016.3 mb 0.00 in0.0 mm 0.00 in0.0 mm 0.00 in0.0 mm
01:13 AM 19.4°F-7.0°C 14.5°F-9.7°C 81% 21.0 mph NW33.8 kmh NW 26.0 mph41.8 kmh 30.01 in1016.3 mb 0.00 in0.0 mm 0.00 in0.0 mm 0.00 in0.0 mm
01:12 AM 19.4°F-7.0°C 14.5°F-9.7°C 81% 19.0 mph NNW30.6 kmh NNW 26.0 mph41.8 kmh 30.01 in1016.3 mb 0.00 in0.0 mm 0.00 in0.0 mm 0.00 in0.0 mm
01:11 AM 19.4°F-7.0°C 14.5°F-9.7°C 81% 19.0 mph NW30.6 kmh NW 26.0 mph41.8 kmh 30.00 in1015.9 mb 0.00 in0.0 mm 0.00 in0.0 mm 0.00 in0.0 mm
01:10 AM 19.4°F-7.0°C 14.5°F-9.7°C 81% 17.0 mph NW27.4 kmh NW 26.0 mph41.8 kmh 30.01 in1016.3 mb 0.00 in0.0 mm 0.00 in0.0 mm 0.00 in0.0 mm
01:09 AM 19.4°F-7.0°C 14.5°F-9.7°C 81% 24.0 mph NW38.6 kmh NW 26.0 mph41.8 kmh 30.00 in1015.9 mb 0.00 in0.0 mm 0.00 in0.0 mm 0.00 in0.0 mm
01:08 AM 19.4°F-7.0°C 14.5°F-9.7°C 81% 24.0 mph NW38.6 kmh NW 26.0 mph41.8 kmh 30.00 in1015.9 mb 0.00 in0.0 mm 0.00 in0.0 mm 0.00 in0.0 mm
01:07 AM 19.4°F-7.0°C 14.5°F-9.7°C 81% 24.0 mph NW38.6 kmh NW 26.0 mph41.8 kmh 30.00 in1015.9 mb 0.00 in0.0 mm 0.00 in0.0 mm 0.00 in0.0 mm
01:06 AM 19.4°F-7.0°C 14.5°F-9.7°C 81% 17.0 mph NNW27.4 kmh NNW 26.0 mph41.8 kmh 30.00 in1015.9 mb 0.00 in0.0 mm 0.00 in0.0 mm 0.00 in0.0 mm
01:05 AM 19.4°F-7.0°C 14.5°F-9.7°C 81% 18.0 mph NW29.0 kmh NW 26.0 mph41.8 kmh 30.01 in1016.3 mb 0.00 in0.0 mm 0.00 in0.0 mm 0.00 in0.0 mm
01:04 AM 19.5°F-6.9°C 14.6°F-9.7°C 81% 22.0 mph NW35.4 kmh NW 26.0 mph41.8 kmh 30.01 in1016.3 mb 0.00 in0.0 mm 0.00 in0.0 mm 0.00 in0.0 mm
01:03 AM 19.5°F-6.9°C 14.6°F-9.7°C 81% 19.0 mph NW30.6 kmh NW 26.0 mph41.8 kmh 30.00 in1015.9 mb 0.00 in0.0 mm 0.00 in0.0 mm 0.00 in0.0 mm
01:02 AM 19.5°F-6.9°C 14.6°F-9.7°C 81% 20.0 mph NW32.2 kmh NW 26.0 mph41.8 kmh 30.00 in1015.9 mb 0.00 in0.0 mm 0.00 in0.0 mm 0.00 in0.0 mm
01:01 AM 19.5°F-6.9°C 14.6°F-9.7°C 81% 23.0 mph NW37.0 kmh NW 24.0 mph38.6 kmh 30.00 in1015.9 mb 0.00 in0.0 mm 0.00 in0.0 mm 0.00 in0.0 mm
01:00 AM 19.5°F-6.9°C 14.6°F-9.7°C 81% 18.0 mph NW29.0 kmh NW 30.0 mph48.3 kmh 30.00 in1015.9 mb 0.00 in0.0 mm 0.00 in0.0 mm 0.00 in0.0 mm
12:59 AM 19.5°F-6.9°C 14.6°F-9.7°C 81% 21.0 mph NW33.8 kmh NW 30.0 mph48.3 kmh 30.00 in1015.9 mb 0.00 in0.0 mm 0.00 in0.0 mm 0.00 in0.0 mm
12:58 AM 19.6°F-6.9°C 14.7°F-9.6°C 81% 19.0 mph NW30.6 kmh NW 30.0 mph48.3 kmh 30.01 in1016.3 mb 0.00 in0.0 mm 0.00 in0.0 mm 0.00 in0.0 mm
12:57 AM 19.6°F-6.9°C 14.7°F-9.6°C 81% 16.0 mph NW25.7 kmh NW 30.0 mph48.3 kmh 30.00 in1015.9 mb 0.00 in0.0 mm 0.00 in0.0 mm 0.00 in0.0 mm
12:56 AM 19.6°F-6.9°C 14.7°F-9.6°C 81% 18.0 mph NW29.0 kmh NW 30.0 mph48.3 kmh 30.00 in1015.9 mb 0.00 in0.0 mm 0.00 in0.0 mm 0.00 in0.0 mm
12:55 AM 19.6°F-6.9°C 14.7°F-9.6°C 81% 26.0 mph NW41.8 kmh NW 30.0 mph48.3 kmh 30.00 in1015.9 mb 0.00 in0.0 mm 0.00 in0.0 mm 0.00 in0.0 mm
12:54 AM 19.6°F-6.9°C 14.7°F-9.6°C 81% 19.0 mph NW30.6 kmh NW 30.0 mph48.3 kmh 30.01 in1016.3 mb 0.00 in0.0 mm 0.00 in0.0 mm 0.00 in0.0 mm
12:53 AM 19.6°F-6.9°C 14.7°F-9.6°C 81% 19.0 mph NW30.6 kmh NW 30.0 mph48.3 kmh 30.01 in1016.3 mb 0.00 in0.0 mm 0.00 in0.0 mm 0.00 in0.0 mm
12:52 AM 19.7°F-6.8°C 14.8°F-9.6°C 81% 13.0 mph NW20.9 kmh NW 30.0 mph48.3 kmh 30.01 in1016.3 mb 0.00 in0.0 mm 0.00 in0.0 mm 0.00 in0.0 mm
12:51 AM 19.7°F-6.8°C 14.8°F-9.6°C 81% 24.0 mph NW38.6 kmh NW 30.0 mph48.3 kmh 30.01 in1016.3 mb 0.00 in0.0 mm 0.00 in0.0 mm 0.00 in0.0 mm
12:50 AM 19.7°F-6.8°C 14.8°F-9.6°C 81% 15.0 mph NW24.1 kmh NW 30.0 mph48.3 kmh 30.01 in1016.3 mb 0.00 in0.0 mm 0.00 in0.0 mm 0.00 in0.0 mm
12:49 AM 19.7°F-6.8°C 14.8°F-9.6°C 81% 23.0 mph NW37.0 kmh NW 30.0 mph48.3 kmh 30.01 in1016.3 mb 0.00 in0.0 mm 0.00 in0.0 mm 0.00 in0.0 mm
12:48 AM 19.7°F-6.8°C 14.8°F-9.6°C 81% 19.0 mph NNW30.6 kmh NNW 30.0 mph48.3 kmh 30.01 in1016.3 mb 0.00 in0.0 mm 0.00 in0.0 mm 0.00 in0.0 mm
12:47 AM 19.7°F-6.8°C 14.8°F-9.6°C 81% 15.0 mph NW24.1 kmh NW 30.0 mph48.3 kmh 30.01 in1016.3 mb 0.00 in0.0 mm 0.00 in0.0 mm 0.00 in0.0 mm
12:46 AM 19.7°F-6.8°C 14.8°F-9.6°C 81% 17.0 mph NW27.4 kmh NW 30.0 mph48.3 kmh 30.00 in1015.9 mb 0.00 in0.0 mm 0.00 in0.0 mm 0.00 in0.0 mm
12:45 AM 19.8°F-6.8°C 14.9°F-9.5°C 81% 23.0 mph NW37.0 kmh NW 30.0 mph48.3 kmh 30.00 in1015.9 mb 0.00 in0.0 mm 0.00 in0.0 mm 0.00 in0.0 mm
12:44 AM 19.8°F-6.8°C 14.9°F-9.5°C 81% 17.0 mph NW27.4 kmh NW 30.0 mph48.3 kmh 30.01 in1016.3 mb 0.00 in0.0 mm 0.00 in0.0 mm 0.00 in0.0 mm
12:43 AM 19.8°F-6.8°C 14.9°F-9.5°C 81% 17.0 mph NW27.4 kmh NW 30.0 mph48.3 kmh 30.00 in1015.9 mb 0.00 in0.0 mm 0.00 in0.0 mm 0.00 in0.0 mm
12:42 AM 19.8°F-6.8°C 14.9°F-9.5°C 81% 19.0 mph NW30.6 kmh NW 30.0 mph48.3 kmh 30.01 in1016.3 mb 0.00 in0.0 mm 0.00 in0.0 mm 0.00 in0.0 mm
12:41 AM 19.8°F-6.8°C 14.9°F-9.5°C 81% 20.0 mph NW32.2 kmh NW 30.0 mph48.3 kmh 30.00 in1015.9 mb 0.00 in0.0 mm 0.00 in0.0 mm 0.00 in0.0 mm
12:40 AM 19.8°F-6.8°C 14.9°F-9.5°C 81% 30.0 mph NW48.3 kmh NW 30.0 mph48.3 kmh 30.00 in1015.9 mb 0.00 in0.0 mm 0.00 in0.0 mm 0.00 in0.0 mm
12:39 AM 19.8°F-6.8°C 14.9°F-9.5°C 81% 24.0 mph NW38.6 kmh NW 30.0 mph48.3 kmh 30.00 in1015.9 mb 0.00 in0.0 mm 0.00 in0.0 mm 0.00 in0.0 mm
12:38 AM 19.8°F-6.8°C 14.9°F-9.5°C 81% 24.0 mph NW38.6 kmh NW 30.0 mph48.3 kmh 30.00 in1015.9 mb 0.00 in0.0 mm 0.00 in0.0 mm 0.00 in0.0 mm
12:37 AM 19.8°F-6.8°C 14.9°F-9.5°C 81% 26.0 mph NW41.8 kmh NW 30.0 mph48.3 kmh 30.00 in1015.9 mb 0.00 in0.0 mm 0.00 in0.0 mm 0.00 in0.0 mm
12:36 AM 19.8°F-6.8°C 14.9°F-9.5°C 81% 21.0 mph NW33.8 kmh NW 27.0 mph43.5 kmh 30.00 in1015.9 mb 0.00 in0.0 mm 0.00 in0.0 mm 0.00 in0.0 mm
12:35 AM 19.8°F-6.8°C 14.9°F-9.5°C 81% 25.0 mph NW40.2 kmh NW 26.0 mph41.8 kmh 30.00 in1015.9 mb 0.00 in0.0 mm 0.00 in0.0 mm 0.00 in0.0 mm
12:34 AM 19.8°F-6.8°C 14.9°F-9.5°C 81% 21.0 mph NW33.8 kmh NW 26.0 mph41.8 kmh 30.00 in1015.9 mb 0.00 in0.0 mm 0.00 in0.0 mm 0.00 in0.0 mm
12:33 AM 19.8°F-6.8°C 15.2°F-9.3°C 82% 24.0 mph NW38.6 kmh NW 26.0 mph41.8 kmh 30.00 in1015.9 mb 0.00 in0.0 mm 0.00 in0.0 mm 0.00 in0.0 mm
12:32 AM 19.9°F-6.7°C 15.3°F-9.3°C 82% 23.0 mph NW37.0 kmh NW 25.0 mph40.2 kmh 30.00 in1015.9 mb 0.00 in0.0 mm 0.00 in0.0 mm 0.00 in0.0 mm
12:31 AM 19.9°F-6.7°C 15.3°F-9.3°C 82% 17.0 mph NW27.4 kmh NW 21.0 mph33.8 kmh 30.00 in1015.9 mb 0.00 in0.0 mm 0.00 in0.0 mm 0.00 in0.0 mm
12:30 AM 19.9°F-6.7°C 15.3°F-9.3°C 82% 17.0 mph NW27.4 kmh NW 29.0 mph46.7 kmh 30.00 in1015.9 mb 0.00 in0.0 mm 0.00 in0.0 mm 0.00 in0.0 mm
12:29 AM 19.9°F-6.7°C 15.3°F-9.3°C 82% 22.0 mph NW35.4 kmh NW 29.0 mph46.7 kmh 30.00 in1015.9 mb 0.00 in0.0 mm 0.00 in0.0 mm 0.00 in0.0 mm
12:28 AM 19.9°F-6.7°C 15.0°F-9.4°C 81% 20.0 mph NW32.2 kmh NW 29.0 mph46.7 kmh 30.00 in1015.9 mb 0.00 in0.0 mm 0.00 in0.0 mm 0.00 in0.0 mm
12:26 AM 19.9°F-6.7°C 15.3°F-9.3°C 82% 20.0 mph NW32.2 kmh NW 29.0 mph46.7 kmh 30.00 in1015.9 mb 0.00 in0.0 mm 0.00 in0.0 mm 0.00 in0.0 mm
12:25 AM 20.0°F-6.7°C 15.4°F-9.2°C 82% 26.0 mph NW41.8 kmh NW 29.0 mph46.7 kmh 30.00 in1015.9 mb 0.00 in0.0 mm 0.00 in0.0 mm 0.00 in0.0 mm
12:24 AM 20.0°F-6.7°C 15.4°F-9.2°C 82% 19.0 mph NW30.6 kmh NW 29.0 mph46.7 kmh 30.00 in1015.9 mb 0.00 in0.0 mm 0.00 in0.0 mm 0.00 in0.0 mm
12:23 AM 20.0°F-6.7°C 15.4°F-9.2°C 82% 21.0 mph NW33.8 kmh NW 29.0 mph46.7 kmh 30.00 in1015.9 mb 0.00 in0.0 mm 0.00 in0.0 mm 0.00 in0.0 mm
12:22 AM 20.0°F-6.7°C 15.4°F-9.2°C 82% 21.0 mph NNW33.8 kmh NNW 29.0 mph46.7 kmh 30.00 in1015.9 mb 0.00 in0.0 mm 0.00 in0.0 mm 0.00 in0.0 mm
12:21 AM 20.1°F-6.6°C 15.5°F-9.2°C 82% 16.0 mph NW25.7 kmh NW 29.0 mph46.7 kmh 30.00 in1015.9 mb 0.00 in0.0 mm 0.00 in0.0 mm 0.00 in0.0 mm
12:20 AM 20.1°F-6.6°C 15.5°F-9.2°C 82% 19.0 mph NW30.6 kmh NW 29.0 mph46.7 kmh 30.00 in1015.9 mb 0.00 in0.0 mm 0.00 in0.0 mm 0.00 in0.0 mm
12:19 AM 20.1°F-6.6°C 15.5°F-9.2°C 82% 22.0 mph WNW35.4 kmh WNW 29.0 mph46.7 kmh 30.00 in1015.9 mb 0.00 in0.0 mm 0.00 in0.0 mm 0.00 in0.0 mm
12:18 AM 20.2°F-6.6°C 15.6°F-9.1°C 82% 17.0 mph NW27.4 kmh NW 29.0 mph46.7 kmh 30.00 in1015.9 mb 0.00 in0.0 mm 0.00 in0.0 mm 0.00 in0.0 mm
12:17 AM 20.2°F-6.6°C 15.6°F-9.1°C 82% 15.0 mph NW24.1 kmh NW 29.0 mph46.7 kmh 30.00 in1015.9 mb 0.00 in0.0 mm 0.00 in0.0 mm 0.00 in0.0 mm
12:16 AM 20.2°F-6.6°C 15.6°F-9.1°C 82% 22.0 mph NW35.4 kmh NW 29.0 mph46.7 kmh 30.00 in1015.9 mb 0.00 in0.0 mm 0.00 in0.0 mm 0.00 in0.0 mm
12:15 AM 20.2°F-6.6°C 15.6°F-9.1°C 82% 23.0 mph NW37.0 kmh NW 29.0 mph46.7 kmh 30.00 in1015.9 mb 0.00 in0.0 mm 0.00 in0.0 mm 0.00 in0.0 mm
12:14 AM 20.2°F-6.6°C 15.6°F-9.1°C 82% 22.0 mph NW35.4 kmh NW 29.0 mph46.7 kmh 29.99 in1015.6 mb 0.00 in0.0 mm 0.00 in0.0 mm 0.00 in0.0 mm
12:13 AM 20.3°F-6.5°C 15.7°F-9.1°C 82% 14.0 mph NW22.5 kmh NW 29.0 mph46.7 kmh 29.99 in1015.6 mb 0.00 in0.0 mm 0.00 in0.0 mm 0.00 in0.0 mm
12:12 AM 20.3°F-6.5°C 15.7°F-9.1°C 82% 18.0 mph NW29.0 kmh NW 29.0 mph46.7 kmh 29.99 in1015.6 mb 0.00 in0.0 mm 0.00 in0.0 mm 0.00 in0.0 mm
12:11 AM 20.3°F-6.5°C 15.7°F-9.1°C 82% 22.0 mph NW35.4 kmh NW 29.0 mph46.7 kmh 29.99 in1015.6 mb 0.00 in0.0 mm 0.00 in0.0 mm 0.00 in0.0 mm
12:10 AM 20.3°F-6.5°C 15.7°F-9.1°C 82% 18.0 mph NW29.0 kmh NW 29.0 mph46.7 kmh 29.99 in1015.6 mb 0.00 in0.0 mm 0.00 in0.0 mm 0.00 in0.0 mm
12:09 AM 20.4°F-6.4°C 15.8°F-9.0°C 82% 17.0 mph NW27.4 kmh NW 29.0 mph46.7 kmh 29.99 in1015.6 mb 0.00 in0.0 mm 0.00 in0.0 mm 0.00 in0.0 mm
12:08 AM 20.4°F-6.4°C 15.8°F-9.0°C 82% 25.0 mph NW40.2 kmh NW 28.0 mph45.1 kmh 29.99 in1015.6 mb 0.00 in0.0 mm 0.00 in0.0 mm 0.00 in0.0 mm
12:07 AM 20.4°F-6.4°C 15.8°F-9.0°C 82% 24.0 mph NW38.6 kmh NW 28.0 mph45.1 kmh 29.99 in1015.6 mb 0.00 in0.0 mm 0.00 in0.0 mm 0.00 in0.0 mm
12:06 AM 20.4°F-6.4°C 15.8°F-9.0°C 82% 26.0 mph NW41.8 kmh NW 27.0 mph43.5 kmh 29.99 in1015.6 mb 0.00 in0.0 mm 0.00 in0.0 mm 0.00 in0.0 mm
12:05 AM 20.5°F-6.4°C 15.9°F-8.9°C 82% 21.0 mph NW33.8 kmh NW 26.0 mph41.8 kmh 29.99 in1015.6 mb 0.00 in0.0 mm 0.00 in0.0 mm 0.00 in0.0 mm
12:04 AM 20.5°F-6.4°C 15.9°F-8.9°C 82% 22.0 mph NW35.4 kmh NW 26.0 mph41.8 kmh 29.99 in1015.6 mb 0.00 in0.0 mm 0.00 in0.0 mm 0.00 in0.0 mm
12:03 AM 20.5°F-6.4°C 15.9°F-8.9°C 82% 19.0 mph NW30.6 kmh NW 26.0 mph41.8 kmh 29.99 in1015.6 mb 0.00 in0.0 mm 0.00 in0.0 mm 0.00 in0.0 mm
12:02 AM 20.6°F-6.3°C 16.0°F-8.9°C 82% 22.0 mph NW35.4 kmh NW 26.0 mph41.8 kmh 29.99 in1015.6 mb 0.00 in0.0 mm 0.00 in0.0 mm 0.00 in0.0 mm
12:01 AM 20.6°F-6.3°C 16.0°F-8.9°C 82% 20.0 mph NW32.2 kmh NW 26.0 mph41.8 kmh 29.99 in1015.6 mb 0.00 in0.0 mm 0.00 in0.0 mm 0.00 in0.0 mm
12:00 AM 20.6°F-6.3°C 16.0°F-8.9°C 82% 19.0 mph NW30.6 kmh NW 26.0 mph41.8 kmh 29.99 in1015.6 mb 0.00 in0.0 mm 0.00 in0.0 mm 0.00 in0.0 mm